<?xml version="1.0" encoding="UTF-8" standalone="no" ?>
<gpx xmlns="http://www.topografix.com/GPX/1/1" xmlns:xsi="http://www.w3.org/2001/XMLSchema-instance" xsi:schemaLocation="http://www.topografix.com/GPX/1/1 http://www.topografix.com/GPX/1/1/gpx.xsd" version="1.1" creator="VisuGPX - https://www.visugpx.com">
  <metadata>
    <name>St Saturnin les Apt - Le Grand Marignon</name>
    <desc><![CDATA[faite fin mai 2021]]></desc>
  </metadata>
  <trk>
    <name><![CDATA[2021-05-27 15:57:51]]></name>
    <trkseg>
      <trkpt lat="43.96392" lon="5.33667">
        <ele>446.42</ele>
        <time>2021-05-27T07:28:30Z</time>
      </trkpt>
      <trkpt lat="43.96392" lon="5.33667">
        <ele>446.47</ele>
        <time>2021-05-27T07:28:31Z</time>
      </trkpt>
      <trkpt lat="43.96399" lon="5.33661">
        <ele>446.45</ele>
        <time>2021-05-27T07:29:03Z</time>
      </trkpt>
      <trkpt lat="43.96417" lon="5.33659">
        <ele>446.54</ele>
        <time>2021-05-27T07:29:23Z</time>
      </trkpt>
      <trkpt lat="43.96433" lon="5.33662">
        <ele>446.15</ele>
        <time>2021-05-27T07:29:39Z</time>
      </trkpt>
      <trkpt lat="43.96452" lon="5.33667">
        <ele>446.85</ele>
        <time>2021-05-27T07:30:00Z</time>
      </trkpt>
      <trkpt lat="43.96463" lon="5.33679">
        <ele>448</ele>
        <time>2021-05-27T07:30:18Z</time>
      </trkpt>
      <trkpt lat="43.96473" lon="5.33691">
        <ele>448.9</ele>
        <time>2021-05-27T07:30:33Z</time>
      </trkpt>
      <trkpt lat="43.96482" lon="5.33699">
        <ele>451.12</ele>
        <time>2021-05-27T07:30:50Z</time>
      </trkpt>
      <trkpt lat="43.96498" lon="5.337">
        <ele>451.68</ele>
        <time>2021-05-27T07:31:07Z</time>
      </trkpt>
      <trkpt lat="43.96512" lon="5.337">
        <ele>449.64</ele>
        <time>2021-05-27T07:31:25Z</time>
      </trkpt>
      <trkpt lat="43.96522" lon="5.33696">
        <ele>447.34</ele>
        <time>2021-05-27T07:31:42Z</time>
      </trkpt>
      <trkpt lat="43.96529" lon="5.33693">
        <ele>444.3</ele>
        <time>2021-05-27T07:31:55Z</time>
      </trkpt>
      <trkpt lat="43.96544" lon="5.33693">
        <ele>441.48</ele>
        <time>2021-05-27T07:32:14Z</time>
      </trkpt>
      <trkpt lat="43.96555" lon="5.33704">
        <ele>438.69</ele>
        <time>2021-05-27T07:32:31Z</time>
      </trkpt>
      <trkpt lat="43.96565" lon="5.33723">
        <ele>436.46</ele>
        <time>2021-05-27T07:32:51Z</time>
      </trkpt>
      <trkpt lat="43.96575" lon="5.33735">
        <ele>433.21</ele>
        <time>2021-05-27T07:33:14Z</time>
      </trkpt>
      <trkpt lat="43.96585" lon="5.33742">
        <ele>430.06</ele>
        <time>2021-05-27T07:33:30Z</time>
      </trkpt>
      <trkpt lat="43.96595" lon="5.33749">
        <ele>426.97</ele>
        <time>2021-05-27T07:33:45Z</time>
      </trkpt>
      <trkpt lat="43.96609" lon="5.3376">
        <ele>423.76</ele>
        <time>2021-05-27T07:34:03Z</time>
      </trkpt>
      <trkpt lat="43.96626" lon="5.33781">
        <ele>422.18</ele>
        <time>2021-05-27T07:34:29Z</time>
      </trkpt>
      <trkpt lat="43.96647" lon="5.33798">
        <ele>421.4</ele>
        <time>2021-05-27T07:34:55Z</time>
      </trkpt>
      <trkpt lat="43.9666" lon="5.3381">
        <ele>418.1</ele>
        <time>2021-05-27T07:35:15Z</time>
      </trkpt>
      <trkpt lat="43.96677" lon="5.33831">
        <ele>415.72</ele>
        <time>2021-05-27T07:35:38Z</time>
      </trkpt>
      <trkpt lat="43.96691" lon="5.33844">
        <ele>412.69</ele>
        <time>2021-05-27T07:35:59Z</time>
      </trkpt>
      <trkpt lat="43.967" lon="5.33856">
        <ele>409.68</ele>
        <time>2021-05-27T07:36:14Z</time>
      </trkpt>
      <trkpt lat="43.96704" lon="5.33864">
        <ele>408.68</ele>
        <time>2021-05-27T07:36:23Z</time>
      </trkpt>
      <trkpt lat="43.96722" lon="5.33884">
        <ele>408.44</ele>
        <time>2021-05-27T07:36:47Z</time>
      </trkpt>
      <trkpt lat="43.96736" lon="5.339">
        <ele>410.03</ele>
        <time>2021-05-27T07:37:11Z</time>
      </trkpt>
      <trkpt lat="43.96742" lon="5.33899">
        <ele>410.16</ele>
        <time>2021-05-27T07:37:16Z</time>
      </trkpt>
      <trkpt lat="43.96747" lon="5.33899">
        <ele>410.21</ele>
        <time>2021-05-27T07:37:21Z</time>
      </trkpt>
      <trkpt lat="43.96758" lon="5.33897">
        <ele>410.21</ele>
        <time>2021-05-27T07:37:31Z</time>
      </trkpt>
      <trkpt lat="43.96766" lon="5.33897">
        <ele>410.06</ele>
        <time>2021-05-27T07:37:42Z</time>
      </trkpt>
      <trkpt lat="43.96769" lon="5.33897">
        <ele>409.92</ele>
        <time>2021-05-27T07:37:46Z</time>
      </trkpt>
      <trkpt lat="43.96784" lon="5.33898">
        <ele>409.55</ele>
        <time>2021-05-27T07:38:01Z</time>
      </trkpt>
      <trkpt lat="43.96787" lon="5.33899">
        <ele>409.74</ele>
        <time>2021-05-27T07:38:06Z</time>
      </trkpt>
      <trkpt lat="43.9679" lon="5.33899">
        <ele>410.05</ele>
        <time>2021-05-27T07:38:10Z</time>
      </trkpt>
      <trkpt lat="43.96795" lon="5.33899">
        <ele>410.65</ele>
        <time>2021-05-27T07:38:15Z</time>
      </trkpt>
      <trkpt lat="43.968" lon="5.33898">
        <ele>410.97</ele>
        <time>2021-05-27T07:38:20Z</time>
      </trkpt>
      <trkpt lat="43.96804" lon="5.33899">
        <ele>411.12</ele>
        <time>2021-05-27T07:38:23Z</time>
      </trkpt>
      <trkpt lat="43.96821" lon="5.33894">
        <ele>411.54</ele>
        <time>2021-05-27T07:38:41Z</time>
      </trkpt>
      <trkpt lat="43.96822" lon="5.33893">
        <ele>411.56</ele>
        <time>2021-05-27T07:38:42Z</time>
      </trkpt>
      <trkpt lat="43.96834" lon="5.33896">
        <ele>411.82</ele>
        <time>2021-05-27T07:38:52Z</time>
      </trkpt>
      <trkpt lat="43.96836" lon="5.33899">
        <ele>411.95</ele>
        <time>2021-05-27T07:38:54Z</time>
      </trkpt>
      <trkpt lat="43.96843" lon="5.33906">
        <ele>412.21</ele>
        <time>2021-05-27T07:39:01Z</time>
      </trkpt>
      <trkpt lat="43.96864" lon="5.33913">
        <ele>413.02</ele>
        <time>2021-05-27T07:39:21Z</time>
      </trkpt>
      <trkpt lat="43.96871" lon="5.33907">
        <ele>413.59</ele>
        <time>2021-05-27T07:39:30Z</time>
      </trkpt>
      <trkpt lat="43.96876" lon="5.33905">
        <ele>413.94</ele>
        <time>2021-05-27T07:39:36Z</time>
      </trkpt>
      <trkpt lat="43.96889" lon="5.33903">
        <ele>415.01</ele>
        <time>2021-05-27T07:39:52Z</time>
      </trkpt>
      <trkpt lat="43.96898" lon="5.33896">
        <ele>415.65</ele>
        <time>2021-05-27T07:40:03Z</time>
      </trkpt>
      <trkpt lat="43.96901" lon="5.33894">
        <ele>415.7</ele>
        <time>2021-05-27T07:40:05Z</time>
      </trkpt>
      <trkpt lat="43.96904" lon="5.33888">
        <ele>416.09</ele>
        <time>2021-05-27T07:40:14Z</time>
      </trkpt>
      <trkpt lat="43.96907" lon="5.33881">
        <ele>416.43</ele>
        <time>2021-05-27T07:40:23Z</time>
      </trkpt>
      <trkpt lat="43.96926" lon="5.33873">
        <ele>417.2</ele>
        <time>2021-05-27T07:40:44Z</time>
      </trkpt>
      <trkpt lat="43.96944" lon="5.33867">
        <ele>418.58</ele>
        <time>2021-05-27T07:41:08Z</time>
      </trkpt>
      <trkpt lat="43.96967" lon="5.3388">
        <ele>419.47</ele>
        <time>2021-05-27T07:41:32Z</time>
      </trkpt>
      <trkpt lat="43.96983" lon="5.33894">
        <ele>420.45</ele>
        <time>2021-05-27T07:41:50Z</time>
      </trkpt>
      <trkpt lat="43.96987" lon="5.33899">
        <ele>420.71</ele>
        <time>2021-05-27T07:41:54Z</time>
      </trkpt>
      <trkpt lat="43.96996" lon="5.33911">
        <ele>421.6</ele>
        <time>2021-05-27T07:42:08Z</time>
      </trkpt>
      <trkpt lat="43.97006" lon="5.33934">
        <ele>422.38</ele>
        <time>2021-05-27T07:42:28Z</time>
      </trkpt>
      <trkpt lat="43.97013" lon="5.3397">
        <ele>423.76</ele>
        <time>2021-05-27T07:42:56Z</time>
      </trkpt>
      <trkpt lat="43.97023" lon="5.33997">
        <ele>425.1</ele>
        <time>2021-05-27T07:43:18Z</time>
      </trkpt>
      <trkpt lat="43.9703" lon="5.33998">
        <ele>426.37</ele>
        <time>2021-05-27T07:43:49Z</time>
      </trkpt>
      <trkpt lat="43.97033" lon="5.33998">
        <ele>426.97</ele>
        <time>2021-05-27T07:44:51Z</time>
      </trkpt>
      <trkpt lat="43.9704" lon="5.34027">
        <ele>427.77</ele>
        <time>2021-05-27T07:45:17Z</time>
      </trkpt>
      <trkpt lat="43.97051" lon="5.34057">
        <ele>429.51</ele>
        <time>2021-05-27T07:45:40Z</time>
      </trkpt>
      <trkpt lat="43.97062" lon="5.3407">
        <ele>430.91</ele>
        <time>2021-05-27T07:46:01Z</time>
      </trkpt>
      <trkpt lat="43.97073" lon="5.34103">
        <ele>432.02</ele>
        <time>2021-05-27T07:46:30Z</time>
      </trkpt>
      <trkpt lat="43.97086" lon="5.34132">
        <ele>432.97</ele>
        <time>2021-05-27T07:46:55Z</time>
      </trkpt>
      <trkpt lat="43.97099" lon="5.34161">
        <ele>434.52</ele>
        <time>2021-05-27T07:47:19Z</time>
      </trkpt>
      <trkpt lat="43.97104" lon="5.34171">
        <ele>434.88</ele>
        <time>2021-05-27T07:47:28Z</time>
      </trkpt>
      <trkpt lat="43.97113" lon="5.34207">
        <ele>436.62</ele>
        <time>2021-05-27T07:47:55Z</time>
      </trkpt>
      <trkpt lat="43.9712" lon="5.34238">
        <ele>437.88</ele>
        <time>2021-05-27T07:48:23Z</time>
      </trkpt>
      <trkpt lat="43.97132" lon="5.34252">
        <ele>438.8</ele>
        <time>2021-05-27T07:48:38Z</time>
      </trkpt>
      <trkpt lat="43.97149" lon="5.34283">
        <ele>440.47</ele>
        <time>2021-05-27T07:49:04Z</time>
      </trkpt>
      <trkpt lat="43.9715" lon="5.34292">
        <ele>440.94</ele>
        <time>2021-05-27T07:49:13Z</time>
      </trkpt>
      <trkpt lat="43.97156" lon="5.34328">
        <ele>442.75</ele>
        <time>2021-05-27T07:49:41Z</time>
      </trkpt>
      <trkpt lat="43.97168" lon="5.3436">
        <ele>443.9</ele>
        <time>2021-05-27T07:50:09Z</time>
      </trkpt>
      <trkpt lat="43.97178" lon="5.34385">
        <ele>445.05</ele>
        <time>2021-05-27T07:50:30Z</time>
      </trkpt>
      <trkpt lat="43.97197" lon="5.34402">
        <ele>446.43</ele>
        <time>2021-05-27T07:50:56Z</time>
      </trkpt>
      <trkpt lat="43.97215" lon="5.34427">
        <ele>447.73</ele>
        <time>2021-05-27T07:51:21Z</time>
      </trkpt>
      <trkpt lat="43.97236" lon="5.34448">
        <ele>449.53</ele>
        <time>2021-05-27T07:51:46Z</time>
      </trkpt>
      <trkpt lat="43.97256" lon="5.34457">
        <ele>450.88</ele>
        <time>2021-05-27T07:52:09Z</time>
      </trkpt>
      <trkpt lat="43.97278" lon="5.34443">
        <ele>452.54</ele>
        <time>2021-05-27T07:52:31Z</time>
      </trkpt>
      <trkpt lat="43.97279" lon="5.34432">
        <ele>453.24</ele>
        <time>2021-05-27T07:53:25Z</time>
      </trkpt>
      <trkpt lat="43.9728" lon="5.34432">
        <ele>453.21</ele>
        <time>2021-05-27T07:54:08Z</time>
      </trkpt>
      <trkpt lat="43.97267" lon="5.34434">
        <ele>455.86</ele>
        <time>2021-05-27T07:54:32Z</time>
      </trkpt>
      <trkpt lat="43.97254" lon="5.34426">
        <ele>458.88</ele>
        <time>2021-05-27T07:54:59Z</time>
      </trkpt>
      <trkpt lat="43.97241" lon="5.34413">
        <ele>461.99</ele>
        <time>2021-05-27T07:55:23Z</time>
      </trkpt>
      <trkpt lat="43.9723" lon="5.34394">
        <ele>465.13</ele>
        <time>2021-05-27T07:55:48Z</time>
      </trkpt>
      <trkpt lat="43.97224" lon="5.34381">
        <ele>468.17</ele>
        <time>2021-05-27T07:56:09Z</time>
      </trkpt>
      <trkpt lat="43.97225" lon="5.34371">
        <ele>470.19</ele>
        <time>2021-05-27T07:56:37Z</time>
      </trkpt>
      <trkpt lat="43.97228" lon="5.34362">
        <ele>473.29</ele>
        <time>2021-05-27T07:57:00Z</time>
      </trkpt>
      <trkpt lat="43.97227" lon="5.34348">
        <ele>476.4</ele>
        <time>2021-05-27T07:57:21Z</time>
      </trkpt>
      <trkpt lat="43.97225" lon="5.34329">
        <ele>477.78</ele>
        <time>2021-05-27T07:57:41Z</time>
      </trkpt>
      <trkpt lat="43.97232" lon="5.34306">
        <ele>480.42</ele>
        <time>2021-05-27T07:58:07Z</time>
      </trkpt>
      <trkpt lat="43.97238" lon="5.34299">
        <ele>481.58</ele>
        <time>2021-05-27T07:58:21Z</time>
      </trkpt>
      <trkpt lat="43.97241" lon="5.34277">
        <ele>484.03</ele>
        <time>2021-05-27T07:58:48Z</time>
      </trkpt>
      <trkpt lat="43.97248" lon="5.34269">
        <ele>487.04</ele>
        <time>2021-05-27T07:59:06Z</time>
      </trkpt>
      <trkpt lat="43.97259" lon="5.34255">
        <ele>490.08</ele>
        <time>2021-05-27T07:59:29Z</time>
      </trkpt>
      <trkpt lat="43.97266" lon="5.34237">
        <ele>492.93</ele>
        <time>2021-05-27T07:59:58Z</time>
      </trkpt>
      <trkpt lat="43.97272" lon="5.34229">
        <ele>495.48</ele>
        <time>2021-05-27T08:00:11Z</time>
      </trkpt>
      <trkpt lat="43.97274" lon="5.34214">
        <ele>498.84</ele>
        <time>2021-05-27T08:00:33Z</time>
      </trkpt>
      <trkpt lat="43.97278" lon="5.34205">
        <ele>500.14</ele>
        <time>2021-05-27T08:00:54Z</time>
      </trkpt>
      <trkpt lat="43.97286" lon="5.342">
        <ele>502.37</ele>
        <time>2021-05-27T08:01:15Z</time>
      </trkpt>
      <trkpt lat="43.97287" lon="5.34199">
        <ele>505.52</ele>
        <time>2021-05-27T08:01:40Z</time>
      </trkpt>
      <trkpt lat="43.97288" lon="5.34199">
        <ele>506.05</ele>
        <time>2021-05-27T08:01:44Z</time>
      </trkpt>
      <trkpt lat="43.97294" lon="5.34184">
        <ele>509.25</ele>
        <time>2021-05-27T08:02:05Z</time>
      </trkpt>
      <trkpt lat="43.97297" lon="5.34174">
        <ele>512.2</ele>
        <time>2021-05-27T08:02:29Z</time>
      </trkpt>
      <trkpt lat="43.97303" lon="5.34156">
        <ele>512.73</ele>
        <time>2021-05-27T08:03:15Z</time>
      </trkpt>
      <trkpt lat="43.97301" lon="5.34154">
        <ele>512.84</ele>
        <time>2021-05-27T08:03:28Z</time>
      </trkpt>
      <trkpt lat="43.97309" lon="5.34148">
        <ele>512.71</ele>
        <time>2021-05-27T08:04:10Z</time>
      </trkpt>
      <trkpt lat="43.97306" lon="5.34153">
        <ele>512.59</ele>
        <time>2021-05-27T08:04:18Z</time>
      </trkpt>
      <trkpt lat="43.97309" lon="5.3417">
        <ele>511.33</ele>
        <time>2021-05-27T08:04:43Z</time>
      </trkpt>
      <trkpt lat="43.9732" lon="5.34166">
        <ele>512.89</ele>
        <time>2021-05-27T08:04:59Z</time>
      </trkpt>
      <trkpt lat="43.97335" lon="5.34159">
        <ele>514.3</ele>
        <time>2021-05-27T08:05:18Z</time>
      </trkpt>
      <trkpt lat="43.97338" lon="5.34157">
        <ele>514.55</ele>
        <time>2021-05-27T08:05:22Z</time>
      </trkpt>
      <trkpt lat="43.97339" lon="5.34153">
        <ele>514.92</ele>
        <time>2021-05-27T08:05:25Z</time>
      </trkpt>
      <trkpt lat="43.97344" lon="5.34151">
        <ele>515.47</ele>
        <time>2021-05-27T08:05:32Z</time>
      </trkpt>
      <trkpt lat="43.9735" lon="5.3415">
        <ele>515.59</ele>
        <time>2021-05-27T08:05:38Z</time>
      </trkpt>
      <trkpt lat="43.97327" lon="5.34184">
        <ele>514.31</ele>
        <time>2021-05-27T08:06:09Z</time>
      </trkpt>
      <trkpt lat="43.97332" lon="5.34179">
        <ele>513.85</ele>
        <time>2021-05-27T08:06:40Z</time>
      </trkpt>
      <trkpt lat="43.97334" lon="5.34178">
        <ele>513.57</ele>
        <time>2021-05-27T08:06:57Z</time>
      </trkpt>
      <trkpt lat="43.97327" lon="5.34175">
        <ele>513.58</ele>
        <time>2021-05-27T08:07:27Z</time>
      </trkpt>
      <trkpt lat="43.97328" lon="5.34147">
        <ele>513.06</ele>
        <time>2021-05-27T08:08:02Z</time>
      </trkpt>
      <trkpt lat="43.9734" lon="5.34152">
        <ele>513.09</ele>
        <time>2021-05-27T08:08:20Z</time>
      </trkpt>
      <trkpt lat="43.97341" lon="5.34154">
        <ele>513.13</ele>
        <time>2021-05-27T08:08:24Z</time>
      </trkpt>
      <trkpt lat="43.97333" lon="5.34167">
        <ele>513.16</ele>
        <time>2021-05-27T08:08:34Z</time>
      </trkpt>
      <trkpt lat="43.97325" lon="5.34174">
        <ele>513.02</ele>
        <time>2021-05-27T08:08:44Z</time>
      </trkpt>
      <trkpt lat="43.97321" lon="5.3417">
        <ele>512.07</ele>
        <time>2021-05-27T08:09:11Z</time>
      </trkpt>
      <trkpt lat="43.97324" lon="5.34163">
        <ele>510.65</ele>
        <time>2021-05-27T08:09:46Z</time>
      </trkpt>
      <trkpt lat="43.97327" lon="5.3415">
        <ele>509.85</ele>
        <time>2021-05-27T08:10:10Z</time>
      </trkpt>
      <trkpt lat="43.97321" lon="5.34151">
        <ele>508.9</ele>
        <time>2021-05-27T08:10:50Z</time>
      </trkpt>
      <trkpt lat="43.97324" lon="5.34146">
        <ele>508.17</ele>
        <time>2021-05-27T08:11:20Z</time>
      </trkpt>
      <trkpt lat="43.9731" lon="5.34162">
        <ele>507.19</ele>
        <time>2021-05-27T08:11:43Z</time>
      </trkpt>
      <trkpt lat="43.97296" lon="5.34164">
        <ele>504.4</ele>
        <time>2021-05-27T08:12:19Z</time>
      </trkpt>
      <trkpt lat="43.97296" lon="5.34183">
        <ele>502.5</ele>
        <time>2021-05-27T08:12:44Z</time>
      </trkpt>
      <trkpt lat="43.97291" lon="5.34196">
        <ele>499.32</ele>
        <time>2021-05-27T08:12:59Z</time>
      </trkpt>
      <trkpt lat="43.97285" lon="5.34198">
        <ele>496.19</ele>
        <time>2021-05-27T08:13:14Z</time>
      </trkpt>
      <trkpt lat="43.97278" lon="5.34191">
        <ele>493.16</ele>
        <time>2021-05-27T08:13:39Z</time>
      </trkpt>
      <trkpt lat="43.97272" lon="5.342">
        <ele>490.16</ele>
        <time>2021-05-27T08:13:58Z</time>
      </trkpt>
      <trkpt lat="43.97271" lon="5.34216">
        <ele>487.08</ele>
        <time>2021-05-27T08:14:18Z</time>
      </trkpt>
      <trkpt lat="43.97271" lon="5.34226">
        <ele>486.11</ele>
        <time>2021-05-27T08:14:44Z</time>
      </trkpt>
      <trkpt lat="43.9727" lon="5.3423">
        <ele>486.79</ele>
        <time>2021-05-27T08:15:54Z</time>
      </trkpt>
      <trkpt lat="43.97268" lon="5.34225">
        <ele>486.99</ele>
        <time>2021-05-27T08:16:33Z</time>
      </trkpt>
      <trkpt lat="43.97261" lon="5.34236">
        <ele>485.4</ele>
        <time>2021-05-27T08:17:03Z</time>
      </trkpt>
      <trkpt lat="43.97252" lon="5.34254">
        <ele>482.35</ele>
        <time>2021-05-27T08:17:23Z</time>
      </trkpt>
      <trkpt lat="43.97245" lon="5.34262">
        <ele>479.58</ele>
        <time>2021-05-27T08:17:43Z</time>
      </trkpt>
      <trkpt lat="43.97236" lon="5.34273">
        <ele>477.34</ele>
        <time>2021-05-27T08:18:05Z</time>
      </trkpt>
      <trkpt lat="43.97236" lon="5.34288">
        <ele>474.49</ele>
        <time>2021-05-27T08:18:23Z</time>
      </trkpt>
      <trkpt lat="43.97231" lon="5.343">
        <ele>472.47</ele>
        <time>2021-05-27T08:18:40Z</time>
      </trkpt>
      <trkpt lat="43.9723" lon="5.3431">
        <ele>470.65</ele>
        <time>2021-05-27T08:18:56Z</time>
      </trkpt>
      <trkpt lat="43.97226" lon="5.34319">
        <ele>470.07</ele>
        <time>2021-05-27T08:19:09Z</time>
      </trkpt>
      <trkpt lat="43.97225" lon="5.34335">
        <ele>468.72</ele>
        <time>2021-05-27T08:19:22Z</time>
      </trkpt>
      <trkpt lat="43.9723" lon="5.34351">
        <ele>467.49</ele>
        <time>2021-05-27T08:19:40Z</time>
      </trkpt>
      <trkpt lat="43.97231" lon="5.34364">
        <ele>464.96</ele>
        <time>2021-05-27T08:20:01Z</time>
      </trkpt>
      <trkpt lat="43.97227" lon="5.34373">
        <ele>461.79</ele>
        <time>2021-05-27T08:20:24Z</time>
      </trkpt>
      <trkpt lat="43.97225" lon="5.34396">
        <ele>458.78</ele>
        <time>2021-05-27T08:20:44Z</time>
      </trkpt>
      <trkpt lat="43.97227" lon="5.34401">
        <ele>457.32</ele>
        <time>2021-05-27T08:20:52Z</time>
      </trkpt>
      <trkpt lat="43.97236" lon="5.34418">
        <ele>454.04</ele>
        <time>2021-05-27T08:21:11Z</time>
      </trkpt>
      <trkpt lat="43.97249" lon="5.3444">
        <ele>450.95</ele>
        <time>2021-05-27T08:21:39Z</time>
      </trkpt>
      <trkpt lat="43.97261" lon="5.34447">
        <ele>447.85</ele>
        <time>2021-05-27T08:21:56Z</time>
      </trkpt>
      <trkpt lat="43.9727" lon="5.34447">
        <ele>444.63</ele>
        <time>2021-05-27T08:22:13Z</time>
      </trkpt>
      <trkpt lat="43.97273" lon="5.34448">
        <ele>443.2</ele>
        <time>2021-05-27T08:22:33Z</time>
      </trkpt>
      <trkpt lat="43.97269" lon="5.34452">
        <ele>443.46</ele>
        <time>2021-05-27T08:23:28Z</time>
      </trkpt>
      <trkpt lat="43.9727" lon="5.34451">
        <ele>443.46</ele>
        <time>2021-05-27T08:23:29Z</time>
      </trkpt>
      <trkpt lat="43.9729" lon="5.34457">
        <ele>444.28</ele>
        <time>2021-05-27T08:23:52Z</time>
      </trkpt>
      <trkpt lat="43.97313" lon="5.34474">
        <ele>446.25</ele>
        <time>2021-05-27T08:24:18Z</time>
      </trkpt>
      <trkpt lat="43.97335" lon="5.34482">
        <ele>447.73</ele>
        <time>2021-05-27T08:24:40Z</time>
      </trkpt>
      <trkpt lat="43.97354" lon="5.34489">
        <ele>449.24</ele>
        <time>2021-05-27T08:24:59Z</time>
      </trkpt>
      <trkpt lat="43.97384" lon="5.34497">
        <ele>451.35</ele>
        <time>2021-05-27T08:25:29Z</time>
      </trkpt>
      <trkpt lat="43.97409" lon="5.34508">
        <ele>453.38</ele>
        <time>2021-05-27T08:25:56Z</time>
      </trkpt>
      <trkpt lat="43.97427" lon="5.34523">
        <ele>456.41</ele>
        <time>2021-05-27T08:26:23Z</time>
      </trkpt>
      <trkpt lat="43.97434" lon="5.34522">
        <ele>457.18</ele>
        <time>2021-05-27T08:26:32Z</time>
      </trkpt>
      <trkpt lat="43.97456" lon="5.34534">
        <ele>460.36</ele>
        <time>2021-05-27T08:27:01Z</time>
      </trkpt>
      <trkpt lat="43.97477" lon="5.34542">
        <ele>462.71</ele>
        <time>2021-05-27T08:27:26Z</time>
      </trkpt>
      <trkpt lat="43.97493" lon="5.34557">
        <ele>464.29</ele>
        <time>2021-05-27T08:27:47Z</time>
      </trkpt>
      <trkpt lat="43.97517" lon="5.34576">
        <ele>466.3</ele>
        <time>2021-05-27T08:28:15Z</time>
      </trkpt>
      <trkpt lat="43.97532" lon="5.34586">
        <ele>467.95</ele>
        <time>2021-05-27T08:28:33Z</time>
      </trkpt>
      <trkpt lat="43.97554" lon="5.34597">
        <ele>470.4</ele>
        <time>2021-05-27T08:29:02Z</time>
      </trkpt>
      <trkpt lat="43.97578" lon="5.34601">
        <ele>472.82</ele>
        <time>2021-05-27T08:29:24Z</time>
      </trkpt>
      <trkpt lat="43.9759" lon="5.34618">
        <ele>474.46</ele>
        <time>2021-05-27T08:29:45Z</time>
      </trkpt>
      <trkpt lat="43.97603" lon="5.34622">
        <ele>476.38</ele>
        <time>2021-05-27T08:30:03Z</time>
      </trkpt>
      <trkpt lat="43.9763" lon="5.34634">
        <ele>478.27</ele>
        <time>2021-05-27T08:30:31Z</time>
      </trkpt>
      <trkpt lat="43.97646" lon="5.34644">
        <ele>479.95</ele>
        <time>2021-05-27T08:30:52Z</time>
      </trkpt>
      <trkpt lat="43.97648" lon="5.34646">
        <ele>480.13</ele>
        <time>2021-05-27T08:30:55Z</time>
      </trkpt>
      <trkpt lat="43.97664" lon="5.34668">
        <ele>482.36</ele>
        <time>2021-05-27T08:31:20Z</time>
      </trkpt>
      <trkpt lat="43.9768" lon="5.34682">
        <ele>484.09</ele>
        <time>2021-05-27T08:31:42Z</time>
      </trkpt>
      <trkpt lat="43.97686" lon="5.34685">
        <ele>484.59</ele>
        <time>2021-05-27T08:31:51Z</time>
      </trkpt>
      <trkpt lat="43.97712" lon="5.34699">
        <ele>486.17</ele>
        <time>2021-05-27T08:32:17Z</time>
      </trkpt>
      <trkpt lat="43.97729" lon="5.34721">
        <ele>487.85</ele>
        <time>2021-05-27T08:32:41Z</time>
      </trkpt>
      <trkpt lat="43.97735" lon="5.34725">
        <ele>488.4</ele>
        <time>2021-05-27T08:32:49Z</time>
      </trkpt>
      <trkpt lat="43.97737" lon="5.34729">
        <ele>488.59</ele>
        <time>2021-05-27T08:32:53Z</time>
      </trkpt>
      <trkpt lat="43.97756" lon="5.34761">
        <ele>490.52</ele>
        <time>2021-05-27T08:33:24Z</time>
      </trkpt>
      <trkpt lat="43.97772" lon="5.34779">
        <ele>492.42</ele>
        <time>2021-05-27T08:33:46Z</time>
      </trkpt>
      <trkpt lat="43.97776" lon="5.34778">
        <ele>492.66</ele>
        <time>2021-05-27T08:33:50Z</time>
      </trkpt>
      <trkpt lat="43.97782" lon="5.34781">
        <ele>493.19</ele>
        <time>2021-05-27T08:33:58Z</time>
      </trkpt>
      <trkpt lat="43.9779" lon="5.34784">
        <ele>493.92</ele>
        <time>2021-05-27T08:34:08Z</time>
      </trkpt>
      <trkpt lat="43.97795" lon="5.34783">
        <ele>494.11</ele>
        <time>2021-05-27T08:34:12Z</time>
      </trkpt>
      <trkpt lat="43.97796" lon="5.34783">
        <ele>494.24</ele>
        <time>2021-05-27T08:34:15Z</time>
      </trkpt>
      <trkpt lat="43.97801" lon="5.34782">
        <ele>494.6</ele>
        <time>2021-05-27T08:34:21Z</time>
      </trkpt>
      <trkpt lat="43.97805" lon="5.34782">
        <ele>494.67</ele>
        <time>2021-05-27T08:34:24Z</time>
      </trkpt>
      <trkpt lat="43.97833" lon="5.34778">
        <ele>496.5</ele>
        <time>2021-05-27T08:34:52Z</time>
      </trkpt>
      <trkpt lat="43.9784" lon="5.34785">
        <ele>497.6</ele>
        <time>2021-05-27T08:35:34Z</time>
      </trkpt>
      <trkpt lat="43.97841" lon="5.34784">
        <ele>497.66</ele>
        <time>2021-05-27T08:35:38Z</time>
      </trkpt>
      <trkpt lat="43.97843" lon="5.34788">
        <ele>497.85</ele>
        <time>2021-05-27T08:36:05Z</time>
      </trkpt>
      <trkpt lat="43.97844" lon="5.34807">
        <ele>501.05</ele>
        <time>2021-05-27T08:36:26Z</time>
      </trkpt>
      <trkpt lat="43.97853" lon="5.34821">
        <ele>504.22</ele>
        <time>2021-05-27T08:36:47Z</time>
      </trkpt>
      <trkpt lat="43.97857" lon="5.34832">
        <ele>507.22</ele>
        <time>2021-05-27T08:37:06Z</time>
      </trkpt>
      <trkpt lat="43.97857" lon="5.34835">
        <ele>507.74</ele>
        <time>2021-05-27T08:37:10Z</time>
      </trkpt>
      <trkpt lat="43.97866" lon="5.34853">
        <ele>510.95</ele>
        <time>2021-05-27T08:37:36Z</time>
      </trkpt>
      <trkpt lat="43.97876" lon="5.34866">
        <ele>514</ele>
        <time>2021-05-27T08:37:57Z</time>
      </trkpt>
      <trkpt lat="43.97883" lon="5.34873">
        <ele>516.04</ele>
        <time>2021-05-27T08:38:12Z</time>
      </trkpt>
      <trkpt lat="43.97894" lon="5.34886">
        <ele>519.18</ele>
        <time>2021-05-27T08:38:35Z</time>
      </trkpt>
      <trkpt lat="43.979" lon="5.34894">
        <ele>521.51</ele>
        <time>2021-05-27T08:38:51Z</time>
      </trkpt>
      <trkpt lat="43.97914" lon="5.34899">
        <ele>524.7</ele>
        <time>2021-05-27T08:39:16Z</time>
      </trkpt>
      <trkpt lat="43.97918" lon="5.34901">
        <ele>525.5</ele>
        <time>2021-05-27T08:39:22Z</time>
      </trkpt>
      <trkpt lat="43.9792" lon="5.34909">
        <ele>526.67</ele>
        <time>2021-05-27T08:39:31Z</time>
      </trkpt>
      <trkpt lat="43.97927" lon="5.34926">
        <ele>529.94</ele>
        <time>2021-05-27T08:39:56Z</time>
      </trkpt>
      <trkpt lat="43.97937" lon="5.34928">
        <ele>532.48</ele>
        <time>2021-05-27T08:40:32Z</time>
      </trkpt>
      <trkpt lat="43.97938" lon="5.34927">
        <ele>532.49</ele>
        <time>2021-05-27T08:40:33Z</time>
      </trkpt>
      <trkpt lat="43.97941" lon="5.34924">
        <ele>532.8</ele>
        <time>2021-05-27T08:41:31Z</time>
      </trkpt>
      <trkpt lat="43.97941" lon="5.34924">
        <ele>532.94</ele>
        <time>2021-05-27T08:42:24Z</time>
      </trkpt>
      <trkpt lat="43.97944" lon="5.34941">
        <ele>534.69</ele>
        <time>2021-05-27T08:42:48Z</time>
      </trkpt>
      <trkpt lat="43.97945" lon="5.34943">
        <ele>535.03</ele>
        <time>2021-05-27T08:42:50Z</time>
      </trkpt>
      <trkpt lat="43.97946" lon="5.34946">
        <ele>535.52</ele>
        <time>2021-05-27T08:42:53Z</time>
      </trkpt>
      <trkpt lat="43.97954" lon="5.34963">
        <ele>538.95</ele>
        <time>2021-05-27T08:43:15Z</time>
      </trkpt>
      <trkpt lat="43.97956" lon="5.34967">
        <ele>539.85</ele>
        <time>2021-05-27T08:43:21Z</time>
      </trkpt>
      <trkpt lat="43.97959" lon="5.34986">
        <ele>543.1</ele>
        <time>2021-05-27T08:43:43Z</time>
      </trkpt>
      <trkpt lat="43.97967" lon="5.35001">
        <ele>545.8</ele>
        <time>2021-05-27T08:44:07Z</time>
      </trkpt>
      <trkpt lat="43.97966" lon="5.3502">
        <ele>548.92</ele>
        <time>2021-05-27T08:44:31Z</time>
      </trkpt>
      <trkpt lat="43.97966" lon="5.35024">
        <ele>549.34</ele>
        <time>2021-05-27T08:44:34Z</time>
      </trkpt>
      <trkpt lat="43.97966" lon="5.35028">
        <ele>549.82</ele>
        <time>2021-05-27T08:44:38Z</time>
      </trkpt>
      <trkpt lat="43.97971" lon="5.35049">
        <ele>553.12</ele>
        <time>2021-05-27T08:45:03Z</time>
      </trkpt>
      <trkpt lat="43.97971" lon="5.35062">
        <ele>556.25</ele>
        <time>2021-05-27T08:45:22Z</time>
      </trkpt>
      <trkpt lat="43.97976" lon="5.35071">
        <ele>559.3</ele>
        <time>2021-05-27T08:45:40Z</time>
      </trkpt>
      <trkpt lat="43.97978" lon="5.35077">
        <ele>562.37</ele>
        <time>2021-05-27T08:45:59Z</time>
      </trkpt>
      <trkpt lat="43.97984" lon="5.35088">
        <ele>565.49</ele>
        <time>2021-05-27T08:46:20Z</time>
      </trkpt>
      <trkpt lat="43.97993" lon="5.35099">
        <ele>568.53</ele>
        <time>2021-05-27T08:46:42Z</time>
      </trkpt>
      <trkpt lat="43.98008" lon="5.35103">
        <ele>570.87</ele>
        <time>2021-05-27T08:47:05Z</time>
      </trkpt>
      <trkpt lat="43.98014" lon="5.35122">
        <ele>574.15</ele>
        <time>2021-05-27T08:47:29Z</time>
      </trkpt>
      <trkpt lat="43.98016" lon="5.35139">
        <ele>577.22</ele>
        <time>2021-05-27T08:47:51Z</time>
      </trkpt>
      <trkpt lat="43.98016" lon="5.35139">
        <ele>577.39</ele>
        <time>2021-05-27T08:47:52Z</time>
      </trkpt>
      <trkpt lat="43.98027" lon="5.35147">
        <ele>580.62</ele>
        <time>2021-05-27T08:48:16Z</time>
      </trkpt>
      <trkpt lat="43.98027" lon="5.35148">
        <ele>580.7</ele>
        <time>2021-05-27T08:48:17Z</time>
      </trkpt>
      <trkpt lat="43.98028" lon="5.35154">
        <ele>581.37</ele>
        <time>2021-05-27T08:48:23Z</time>
      </trkpt>
      <trkpt lat="43.9803" lon="5.35165">
        <ele>584.58</ele>
        <time>2021-05-27T08:48:46Z</time>
      </trkpt>
      <trkpt lat="43.98033" lon="5.35176">
        <ele>587.75</ele>
        <time>2021-05-27T08:49:04Z</time>
      </trkpt>
      <trkpt lat="43.98033" lon="5.35175">
        <ele>587.88</ele>
        <time>2021-05-27T08:49:05Z</time>
      </trkpt>
      <trkpt lat="43.98032" lon="5.35186">
        <ele>590.63</ele>
        <time>2021-05-27T08:49:33Z</time>
      </trkpt>
      <trkpt lat="43.98031" lon="5.35187">
        <ele>591.84</ele>
        <time>2021-05-27T08:49:42Z</time>
      </trkpt>
      <trkpt lat="43.98033" lon="5.35192">
        <ele>594.54</ele>
        <time>2021-05-27T08:50:16Z</time>
      </trkpt>
      <trkpt lat="43.98025" lon="5.35206">
        <ele>597.17</ele>
        <time>2021-05-27T08:50:40Z</time>
      </trkpt>
      <trkpt lat="43.98037" lon="5.35225">
        <ele>600.18</ele>
        <time>2021-05-27T08:51:09Z</time>
      </trkpt>
      <trkpt lat="43.98042" lon="5.35222">
        <ele>601.1</ele>
        <time>2021-05-27T08:52:04Z</time>
      </trkpt>
      <trkpt lat="43.98051" lon="5.35214">
        <ele>602.01</ele>
        <time>2021-05-27T08:53:01Z</time>
      </trkpt>
      <trkpt lat="43.98052" lon="5.35215">
        <ele>602.24</ele>
        <time>2021-05-27T08:53:04Z</time>
      </trkpt>
      <trkpt lat="43.9806" lon="5.35225">
        <ele>605.52</ele>
        <time>2021-05-27T08:53:21Z</time>
      </trkpt>
      <trkpt lat="43.98071" lon="5.35246">
        <ele>607.37</ele>
        <time>2021-05-27T08:53:48Z</time>
      </trkpt>
      <trkpt lat="43.98073" lon="5.35259">
        <ele>608.78</ele>
        <time>2021-05-27T08:54:01Z</time>
      </trkpt>
      <trkpt lat="43.98073" lon="5.35262">
        <ele>608.87</ele>
        <time>2021-05-27T08:54:04Z</time>
      </trkpt>
      <trkpt lat="43.9808" lon="5.35284">
        <ele>610.6</ele>
        <time>2021-05-27T08:54:34Z</time>
      </trkpt>
      <trkpt lat="43.9808" lon="5.35284">
        <ele>610.64</ele>
        <time>2021-05-27T08:54:38Z</time>
      </trkpt>
      <trkpt lat="43.98083" lon="5.35286">
        <ele>611.04</ele>
        <time>2021-05-27T08:54:53Z</time>
      </trkpt>
      <trkpt lat="43.98093" lon="5.35302">
        <ele>614.37</ele>
        <time>2021-05-27T08:55:21Z</time>
      </trkpt>
      <trkpt lat="43.98098" lon="5.35312">
        <ele>617.39</ele>
        <time>2021-05-27T08:55:39Z</time>
      </trkpt>
      <trkpt lat="43.98101" lon="5.35328">
        <ele>620.27</ele>
        <time>2021-05-27T08:55:59Z</time>
      </trkpt>
      <trkpt lat="43.98102" lon="5.35356">
        <ele>622.07</ele>
        <time>2021-05-27T08:56:25Z</time>
      </trkpt>
      <trkpt lat="43.98102" lon="5.35357">
        <ele>621.66</ele>
        <time>2021-05-27T08:56:28Z</time>
      </trkpt>
      <trkpt lat="43.98109" lon="5.35351">
        <ele>621.09</ele>
        <time>2021-05-27T08:57:12Z</time>
      </trkpt>
      <trkpt lat="43.98108" lon="5.35357">
        <ele>621.46</ele>
        <time>2021-05-27T08:58:23Z</time>
      </trkpt>
      <trkpt lat="43.98105" lon="5.3536">
        <ele>621</ele>
        <time>2021-05-27T08:58:49Z</time>
      </trkpt>
      <trkpt lat="43.98105" lon="5.35353">
        <ele>620.93</ele>
        <time>2021-05-27T08:59:57Z</time>
      </trkpt>
      <trkpt lat="43.98107" lon="5.35355">
        <ele>621.96</ele>
        <time>2021-05-27T09:01:38Z</time>
      </trkpt>
      <trkpt lat="43.98102" lon="5.3536">
        <ele>622.81</ele>
        <time>2021-05-27T09:03:02Z</time>
      </trkpt>
      <trkpt lat="43.98109" lon="5.35355">
        <ele>624.48</ele>
        <time>2021-05-27T09:04:22Z</time>
      </trkpt>
      <trkpt lat="43.98114" lon="5.35366">
        <ele>625.61</ele>
        <time>2021-05-27T09:05:13Z</time>
      </trkpt>
      <trkpt lat="43.98115" lon="5.35387">
        <ele>628.13</ele>
        <time>2021-05-27T09:05:38Z</time>
      </trkpt>
      <trkpt lat="43.98121" lon="5.35414">
        <ele>631.21</ele>
        <time>2021-05-27T09:06:06Z</time>
      </trkpt>
      <trkpt lat="43.98125" lon="5.35422">
        <ele>633.22</ele>
        <time>2021-05-27T09:06:20Z</time>
      </trkpt>
      <trkpt lat="43.98133" lon="5.35426">
        <ele>634.2</ele>
        <time>2021-05-27T09:06:29Z</time>
      </trkpt>
      <trkpt lat="43.98143" lon="5.35444">
        <ele>636.95</ele>
        <time>2021-05-27T09:06:55Z</time>
      </trkpt>
      <trkpt lat="43.98164" lon="5.35449">
        <ele>640.07</ele>
        <time>2021-05-27T09:07:27Z</time>
      </trkpt>
      <trkpt lat="43.98178" lon="5.35464">
        <ele>642.69</ele>
        <time>2021-05-27T09:07:55Z</time>
      </trkpt>
      <trkpt lat="43.9818" lon="5.35468">
        <ele>643.11</ele>
        <time>2021-05-27T09:08:00Z</time>
      </trkpt>
      <trkpt lat="43.98183" lon="5.35485">
        <ele>645.18</ele>
        <time>2021-05-27T09:08:18Z</time>
      </trkpt>
      <trkpt lat="43.98195" lon="5.35512">
        <ele>648.16</ele>
        <time>2021-05-27T09:08:49Z</time>
      </trkpt>
      <trkpt lat="43.98208" lon="5.35531">
        <ele>650.56</ele>
        <time>2021-05-27T09:09:14Z</time>
      </trkpt>
      <trkpt lat="43.98227" lon="5.35546">
        <ele>652.65</ele>
        <time>2021-05-27T09:09:40Z</time>
      </trkpt>
      <trkpt lat="43.98243" lon="5.35562">
        <ele>655.76</ele>
        <time>2021-05-27T09:10:08Z</time>
      </trkpt>
      <trkpt lat="43.98265" lon="5.3555">
        <ele>658.86</ele>
        <time>2021-05-27T09:10:35Z</time>
      </trkpt>
      <trkpt lat="43.98282" lon="5.35541">
        <ele>661.81</ele>
        <time>2021-05-27T09:11:01Z</time>
      </trkpt>
      <trkpt lat="43.98299" lon="5.35552">
        <ele>664.87</ele>
        <time>2021-05-27T09:11:29Z</time>
      </trkpt>
      <trkpt lat="43.9832" lon="5.35569">
        <ele>667.78</ele>
        <time>2021-05-27T09:12:01Z</time>
      </trkpt>
      <trkpt lat="43.98342" lon="5.35561">
        <ele>670.58</ele>
        <time>2021-05-27T09:12:31Z</time>
      </trkpt>
      <trkpt lat="43.98361" lon="5.35549">
        <ele>673.59</ele>
        <time>2021-05-27T09:12:56Z</time>
      </trkpt>
      <trkpt lat="43.9838" lon="5.35549">
        <ele>676.55</ele>
        <time>2021-05-27T09:13:25Z</time>
      </trkpt>
      <trkpt lat="43.98381" lon="5.35553">
        <ele>677.41</ele>
        <time>2021-05-27T09:13:35Z</time>
      </trkpt>
      <trkpt lat="43.98377" lon="5.35581">
        <ele>679.82</ele>
        <time>2021-05-27T09:14:04Z</time>
      </trkpt>
      <trkpt lat="43.98377" lon="5.35582">
        <ele>679.86</ele>
        <time>2021-05-27T09:14:05Z</time>
      </trkpt>
      <trkpt lat="43.98393" lon="5.35609">
        <ele>682.83</ele>
        <time>2021-05-27T09:14:38Z</time>
      </trkpt>
      <trkpt lat="43.98401" lon="5.35613">
        <ele>685.88</ele>
        <time>2021-05-27T09:15:04Z</time>
      </trkpt>
      <trkpt lat="43.98405" lon="5.35611">
        <ele>686.72</ele>
        <time>2021-05-27T09:15:11Z</time>
      </trkpt>
      <trkpt lat="43.98408" lon="5.35609">
        <ele>687</ele>
        <time>2021-05-27T09:15:15Z</time>
      </trkpt>
      <trkpt lat="43.98432" lon="5.356">
        <ele>690.09</ele>
        <time>2021-05-27T09:15:46Z</time>
      </trkpt>
      <trkpt lat="43.98444" lon="5.356">
        <ele>693.1</ele>
        <time>2021-05-27T09:16:09Z</time>
      </trkpt>
      <trkpt lat="43.98467" lon="5.35603">
        <ele>695.42</ele>
        <time>2021-05-27T09:16:36Z</time>
      </trkpt>
      <trkpt lat="43.9849" lon="5.35611">
        <ele>697.21</ele>
        <time>2021-05-27T09:17:03Z</time>
      </trkpt>
      <trkpt lat="43.98513" lon="5.35619">
        <ele>699.72</ele>
        <time>2021-05-27T09:17:33Z</time>
      </trkpt>
      <trkpt lat="43.98525" lon="5.35641">
        <ele>702.55</ele>
        <time>2021-05-27T09:18:01Z</time>
      </trkpt>
      <trkpt lat="43.98527" lon="5.35646">
        <ele>703.06</ele>
        <time>2021-05-27T09:18:06Z</time>
      </trkpt>
      <trkpt lat="43.98543" lon="5.35653">
        <ele>704.48</ele>
        <time>2021-05-27T09:18:25Z</time>
      </trkpt>
      <trkpt lat="43.98558" lon="5.35671">
        <ele>706.78</ele>
        <time>2021-05-27T09:18:51Z</time>
      </trkpt>
      <trkpt lat="43.98575" lon="5.35696">
        <ele>709.49</ele>
        <time>2021-05-27T09:19:20Z</time>
      </trkpt>
      <trkpt lat="43.98583" lon="5.35713">
        <ele>711.95</ele>
        <time>2021-05-27T09:19:47Z</time>
      </trkpt>
      <trkpt lat="43.98597" lon="5.35735">
        <ele>714.94</ele>
        <time>2021-05-27T09:20:15Z</time>
      </trkpt>
      <trkpt lat="43.98611" lon="5.35743">
        <ele>717.5</ele>
        <time>2021-05-27T09:20:43Z</time>
      </trkpt>
      <trkpt lat="43.98626" lon="5.35757">
        <ele>720.06</ele>
        <time>2021-05-27T09:21:11Z</time>
      </trkpt>
      <trkpt lat="43.98635" lon="5.35758">
        <ele>721.77</ele>
        <time>2021-05-27T09:21:40Z</time>
      </trkpt>
      <trkpt lat="43.98636" lon="5.35758">
        <ele>721.75</ele>
        <time>2021-05-27T09:22:10Z</time>
      </trkpt>
      <trkpt lat="43.98638" lon="5.3577">
        <ele>721.69</ele>
        <time>2021-05-27T09:22:49Z</time>
      </trkpt>
      <trkpt lat="43.98645" lon="5.35769">
        <ele>721.64</ele>
        <time>2021-05-27T09:23:11Z</time>
      </trkpt>
      <trkpt lat="43.98668" lon="5.35771">
        <ele>724.76</ele>
        <time>2021-05-27T09:23:41Z</time>
      </trkpt>
      <trkpt lat="43.98683" lon="5.35784">
        <ele>726.95</ele>
        <time>2021-05-27T09:24:03Z</time>
      </trkpt>
      <trkpt lat="43.98697" lon="5.35796">
        <ele>728.82</ele>
        <time>2021-05-27T09:24:20Z</time>
      </trkpt>
      <trkpt lat="43.98708" lon="5.35805">
        <ele>730.62</ele>
        <time>2021-05-27T09:24:36Z</time>
      </trkpt>
      <trkpt lat="43.98722" lon="5.35821">
        <ele>732.45</ele>
        <time>2021-05-27T09:24:57Z</time>
      </trkpt>
      <trkpt lat="43.98732" lon="5.35831">
        <ele>733.78</ele>
        <time>2021-05-27T09:25:15Z</time>
      </trkpt>
      <trkpt lat="43.9874" lon="5.35836">
        <ele>735.57</ele>
        <time>2021-05-27T09:25:33Z</time>
      </trkpt>
      <trkpt lat="43.98754" lon="5.35842">
        <ele>737.36</ele>
        <time>2021-05-27T09:25:54Z</time>
      </trkpt>
      <trkpt lat="43.9877" lon="5.35855">
        <ele>738.78</ele>
        <time>2021-05-27T09:26:14Z</time>
      </trkpt>
      <trkpt lat="43.98784" lon="5.35871">
        <ele>738.75</ele>
        <time>2021-05-27T09:26:36Z</time>
      </trkpt>
      <trkpt lat="43.98788" lon="5.35891">
        <ele>740.32</ele>
        <time>2021-05-27T09:26:57Z</time>
      </trkpt>
      <trkpt lat="43.98788" lon="5.35893">
        <ele>740.41</ele>
        <time>2021-05-27T09:26:59Z</time>
      </trkpt>
      <trkpt lat="43.98792" lon="5.35919">
        <ele>741.66</ele>
        <time>2021-05-27T09:27:22Z</time>
      </trkpt>
      <trkpt lat="43.98798" lon="5.35945">
        <ele>743.52</ele>
        <time>2021-05-27T09:27:47Z</time>
      </trkpt>
      <trkpt lat="43.98805" lon="5.35968">
        <ele>744.89</ele>
        <time>2021-05-27T09:28:12Z</time>
      </trkpt>
      <trkpt lat="43.98814" lon="5.36">
        <ele>745.9</ele>
        <time>2021-05-27T09:28:39Z</time>
      </trkpt>
      <trkpt lat="43.98828" lon="5.36025">
        <ele>747.25</ele>
        <time>2021-05-27T09:29:04Z</time>
      </trkpt>
      <trkpt lat="43.98839" lon="5.36054">
        <ele>749.22</ele>
        <time>2021-05-27T09:29:27Z</time>
      </trkpt>
      <trkpt lat="43.98858" lon="5.36078">
        <ele>750.47</ele>
        <time>2021-05-27T09:29:50Z</time>
      </trkpt>
      <trkpt lat="43.98873" lon="5.36087">
        <ele>751.29</ele>
        <time>2021-05-27T09:30:08Z</time>
      </trkpt>
      <trkpt lat="43.98896" lon="5.36104">
        <ele>752.79</ele>
        <time>2021-05-27T09:30:33Z</time>
      </trkpt>
      <trkpt lat="43.98906" lon="5.36117">
        <ele>754.28</ele>
        <time>2021-05-27T09:30:49Z</time>
      </trkpt>
      <trkpt lat="43.98914" lon="5.36146">
        <ele>756.02</ele>
        <time>2021-05-27T09:31:15Z</time>
      </trkpt>
      <trkpt lat="43.98921" lon="5.36164">
        <ele>756.98</ele>
        <time>2021-05-27T09:31:30Z</time>
      </trkpt>
      <trkpt lat="43.98927" lon="5.36189">
        <ele>757.96</ele>
        <time>2021-05-27T09:31:52Z</time>
      </trkpt>
      <trkpt lat="43.98933" lon="5.36211">
        <ele>759.5</ele>
        <time>2021-05-27T09:32:11Z</time>
      </trkpt>
      <trkpt lat="43.98938" lon="5.36214">
        <ele>759.79</ele>
        <time>2021-05-27T09:32:15Z</time>
      </trkpt>
      <trkpt lat="43.98947" lon="5.36232">
        <ele>760.61</ele>
        <time>2021-05-27T09:32:31Z</time>
      </trkpt>
      <trkpt lat="43.98954" lon="5.36243">
        <ele>761.77</ele>
        <time>2021-05-27T09:32:45Z</time>
      </trkpt>
      <trkpt lat="43.98964" lon="5.36252">
        <ele>762.79</ele>
        <time>2021-05-27T09:33:01Z</time>
      </trkpt>
      <trkpt lat="43.98974" lon="5.36268">
        <ele>764.14</ele>
        <time>2021-05-27T09:33:20Z</time>
      </trkpt>
      <trkpt lat="43.98986" lon="5.36283">
        <ele>765.78</ele>
        <time>2021-05-27T09:33:44Z</time>
      </trkpt>
      <trkpt lat="43.98992" lon="5.36307">
        <ele>767.44</ele>
        <time>2021-05-27T09:34:10Z</time>
      </trkpt>
      <trkpt lat="43.99004" lon="5.36333">
        <ele>769.36</ele>
        <time>2021-05-27T09:34:36Z</time>
      </trkpt>
      <trkpt lat="43.99019" lon="5.36349">
        <ele>770.21</ele>
        <time>2021-05-27T09:34:58Z</time>
      </trkpt>
      <trkpt lat="43.99037" lon="5.36363">
        <ele>772.56</ele>
        <time>2021-05-27T09:35:24Z</time>
      </trkpt>
      <trkpt lat="43.99055" lon="5.36367">
        <ele>774.23</ele>
        <time>2021-05-27T09:35:51Z</time>
      </trkpt>
      <trkpt lat="43.99063" lon="5.36385">
        <ele>776.91</ele>
        <time>2021-05-27T09:36:18Z</time>
      </trkpt>
      <trkpt lat="43.99077" lon="5.36398">
        <ele>778.85</ele>
        <time>2021-05-27T09:36:40Z</time>
      </trkpt>
      <trkpt lat="43.99078" lon="5.36399">
        <ele>779.28</ele>
        <time>2021-05-27T09:36:44Z</time>
      </trkpt>
      <trkpt lat="43.99092" lon="5.36402">
        <ele>781.65</ele>
        <time>2021-05-27T09:37:13Z</time>
      </trkpt>
      <trkpt lat="43.99106" lon="5.36404">
        <ele>781.87</ele>
        <time>2021-05-27T09:37:38Z</time>
      </trkpt>
      <trkpt lat="43.99107" lon="5.36404">
        <ele>781.88</ele>
        <time>2021-05-27T09:37:39Z</time>
      </trkpt>
      <trkpt lat="43.9912" lon="5.36407">
        <ele>782.64</ele>
        <time>2021-05-27T09:37:55Z</time>
      </trkpt>
      <trkpt lat="43.99139" lon="5.36408">
        <ele>784.72</ele>
        <time>2021-05-27T09:38:16Z</time>
      </trkpt>
      <trkpt lat="43.99161" lon="5.3642">
        <ele>787.32</ele>
        <time>2021-05-27T09:38:42Z</time>
      </trkpt>
      <trkpt lat="43.99179" lon="5.3642">
        <ele>789.62</ele>
        <time>2021-05-27T09:39:03Z</time>
      </trkpt>
      <trkpt lat="43.99188" lon="5.3641">
        <ele>792.25</ele>
        <time>2021-05-27T09:39:21Z</time>
      </trkpt>
      <trkpt lat="43.9919" lon="5.36396">
        <ele>794.14</ele>
        <time>2021-05-27T09:39:36Z</time>
      </trkpt>
      <trkpt lat="43.99191" lon="5.36372">
        <ele>796.68</ele>
        <time>2021-05-27T09:40:07Z</time>
      </trkpt>
      <trkpt lat="43.992" lon="5.36355">
        <ele>799.8</ele>
        <time>2021-05-27T09:40:28Z</time>
      </trkpt>
      <trkpt lat="43.99218" lon="5.36355">
        <ele>801.99</ele>
        <time>2021-05-27T09:40:48Z</time>
      </trkpt>
      <trkpt lat="43.99233" lon="5.36356">
        <ele>803.61</ele>
        <time>2021-05-27T09:41:06Z</time>
      </trkpt>
      <trkpt lat="43.99235" lon="5.36356">
        <ele>803.84</ele>
        <time>2021-05-27T09:41:09Z</time>
      </trkpt>
      <trkpt lat="43.99251" lon="5.36357">
        <ele>805.44</ele>
        <time>2021-05-27T09:41:28Z</time>
      </trkpt>
      <trkpt lat="43.99255" lon="5.36356">
        <ele>806.34</ele>
        <time>2021-05-27T09:41:35Z</time>
      </trkpt>
      <trkpt lat="43.99272" lon="5.36355">
        <ele>809.13</ele>
        <time>2021-05-27T09:41:59Z</time>
      </trkpt>
      <trkpt lat="43.99289" lon="5.36351">
        <ele>811.55</ele>
        <time>2021-05-27T09:42:23Z</time>
      </trkpt>
      <trkpt lat="43.99306" lon="5.36344">
        <ele>814.23</ele>
        <time>2021-05-27T09:42:46Z</time>
      </trkpt>
      <trkpt lat="43.99322" lon="5.36331">
        <ele>817.14</ele>
        <time>2021-05-27T09:43:12Z</time>
      </trkpt>
      <trkpt lat="43.9933" lon="5.36326">
        <ele>818.62</ele>
        <time>2021-05-27T09:43:35Z</time>
      </trkpt>
      <trkpt lat="43.99338" lon="5.36323">
        <ele>819.57</ele>
        <time>2021-05-27T09:43:55Z</time>
      </trkpt>
      <trkpt lat="43.99351" lon="5.36315">
        <ele>820.74</ele>
        <time>2021-05-27T09:44:23Z</time>
      </trkpt>
      <trkpt lat="43.99361" lon="5.36304">
        <ele>821.93</ele>
        <time>2021-05-27T09:44:38Z</time>
      </trkpt>
      <trkpt lat="43.99364" lon="5.36277">
        <ele>823.95</ele>
        <time>2021-05-27T09:45:02Z</time>
      </trkpt>
      <trkpt lat="43.99371" lon="5.36267">
        <ele>825.51</ele>
        <time>2021-05-27T09:45:16Z</time>
      </trkpt>
      <trkpt lat="43.99379" lon="5.36269">
        <ele>826.57</ele>
        <time>2021-05-27T09:46:00Z</time>
      </trkpt>
      <trkpt lat="43.9938" lon="5.36269">
        <ele>827.21</ele>
        <time>2021-05-27T09:46:29Z</time>
      </trkpt>
      <trkpt lat="43.99384" lon="5.36274">
        <ele>827.51</ele>
        <time>2021-05-27T09:47:06Z</time>
      </trkpt>
      <trkpt lat="43.994" lon="5.36284">
        <ele>828.13</ele>
        <time>2021-05-27T09:47:23Z</time>
      </trkpt>
      <trkpt lat="43.99411" lon="5.36296">
        <ele>828.79</ele>
        <time>2021-05-27T09:47:40Z</time>
      </trkpt>
      <trkpt lat="43.99413" lon="5.36322">
        <ele>831.17</ele>
        <time>2021-05-27T09:48:01Z</time>
      </trkpt>
      <trkpt lat="43.99421" lon="5.36345">
        <ele>832.46</ele>
        <time>2021-05-27T09:48:19Z</time>
      </trkpt>
      <trkpt lat="43.99438" lon="5.36349">
        <ele>834.43</ele>
        <time>2021-05-27T09:48:39Z</time>
      </trkpt>
      <trkpt lat="43.99446" lon="5.36355">
        <ele>835.66</ele>
        <time>2021-05-27T09:48:54Z</time>
      </trkpt>
      <trkpt lat="43.99445" lon="5.36383">
        <ele>837.08</ele>
        <time>2021-05-27T09:49:18Z</time>
      </trkpt>
      <trkpt lat="43.99468" lon="5.36409">
        <ele>839.68</ele>
        <time>2021-05-27T09:49:47Z</time>
      </trkpt>
      <trkpt lat="43.99488" lon="5.36438">
        <ele>841.52</ele>
        <time>2021-05-27T09:50:12Z</time>
      </trkpt>
      <trkpt lat="43.99499" lon="5.36459">
        <ele>842.33</ele>
        <time>2021-05-27T09:50:27Z</time>
      </trkpt>
      <trkpt lat="43.99501" lon="5.3646">
        <ele>842.45</ele>
        <time>2021-05-27T09:50:29Z</time>
      </trkpt>
      <trkpt lat="43.99511" lon="5.36473">
        <ele>843.1</ele>
        <time>2021-05-27T09:50:45Z</time>
      </trkpt>
      <trkpt lat="43.99523" lon="5.3649">
        <ele>843.87</ele>
        <time>2021-05-27T09:51:03Z</time>
      </trkpt>
      <trkpt lat="43.99524" lon="5.36492">
        <ele>843.92</ele>
        <time>2021-05-27T09:51:06Z</time>
      </trkpt>
      <trkpt lat="43.99524" lon="5.36511">
        <ele>844.12</ele>
        <time>2021-05-27T09:51:22Z</time>
      </trkpt>
      <trkpt lat="43.99524" lon="5.36517">
        <ele>844.21</ele>
        <time>2021-05-27T09:51:27Z</time>
      </trkpt>
      <trkpt lat="43.99527" lon="5.36538">
        <ele>844.12</ele>
        <time>2021-05-27T09:51:44Z</time>
      </trkpt>
      <trkpt lat="43.99528" lon="5.3654">
        <ele>844.12</ele>
        <time>2021-05-27T09:51:45Z</time>
      </trkpt>
      <trkpt lat="43.99538" lon="5.36563">
        <ele>844.29</ele>
        <time>2021-05-27T09:52:01Z</time>
      </trkpt>
      <trkpt lat="43.99541" lon="5.36586">
        <ele>844.28</ele>
        <time>2021-05-27T09:52:17Z</time>
      </trkpt>
      <trkpt lat="43.99548" lon="5.36603">
        <ele>844.25</ele>
        <time>2021-05-27T09:52:28Z</time>
      </trkpt>
      <trkpt lat="43.9955" lon="5.36608">
        <ele>844.25</ele>
        <time>2021-05-27T09:52:31Z</time>
      </trkpt>
      <trkpt lat="43.99563" lon="5.36623">
        <ele>844.5</ele>
        <time>2021-05-27T09:52:47Z</time>
      </trkpt>
      <trkpt lat="43.99564" lon="5.36623">
        <ele>844.5</ele>
        <time>2021-05-27T09:52:48Z</time>
      </trkpt>
      <trkpt lat="43.9957" lon="5.36623">
        <ele>844.48</ele>
        <time>2021-05-27T09:53:04Z</time>
      </trkpt>
      <trkpt lat="43.99578" lon="5.36624">
        <ele>844.52</ele>
        <time>2021-05-27T09:53:18Z</time>
      </trkpt>
      <trkpt lat="43.99583" lon="5.36627">
        <ele>844.52</ele>
        <time>2021-05-27T09:53:23Z</time>
      </trkpt>
      <trkpt lat="43.99594" lon="5.36634">
        <ele>843.8</ele>
        <time>2021-05-27T09:53:37Z</time>
      </trkpt>
      <trkpt lat="43.99595" lon="5.36635">
        <ele>843.5</ele>
        <time>2021-05-27T09:54:23Z</time>
      </trkpt>
      <trkpt lat="43.99595" lon="5.36653">
        <ele>843.73</ele>
        <time>2021-05-27T09:54:46Z</time>
      </trkpt>
      <trkpt lat="43.99592" lon="5.36678">
        <ele>844.98</ele>
        <time>2021-05-27T09:55:04Z</time>
      </trkpt>
      <trkpt lat="43.99592" lon="5.36697">
        <ele>845.6</ele>
        <time>2021-05-27T09:55:22Z</time>
      </trkpt>
      <trkpt lat="43.99594" lon="5.36721">
        <ele>846.36</ele>
        <time>2021-05-27T09:55:43Z</time>
      </trkpt>
      <trkpt lat="43.99596" lon="5.36744">
        <ele>847.32</ele>
        <time>2021-05-27T09:56:00Z</time>
      </trkpt>
      <trkpt lat="43.99598" lon="5.36762">
        <ele>848.15</ele>
        <time>2021-05-27T09:56:14Z</time>
      </trkpt>
      <trkpt lat="43.99599" lon="5.36779">
        <ele>849.01</ele>
        <time>2021-05-27T09:56:28Z</time>
      </trkpt>
      <trkpt lat="43.99603" lon="5.36798">
        <ele>849.8</ele>
        <time>2021-05-27T09:56:42Z</time>
      </trkpt>
      <trkpt lat="43.99609" lon="5.36822">
        <ele>850.67</ele>
        <time>2021-05-27T09:57:01Z</time>
      </trkpt>
      <trkpt lat="43.99614" lon="5.36842">
        <ele>851.64</ele>
        <time>2021-05-27T09:57:18Z</time>
      </trkpt>
      <trkpt lat="43.99623" lon="5.3686">
        <ele>852.67</ele>
        <time>2021-05-27T09:57:35Z</time>
      </trkpt>
      <trkpt lat="43.99634" lon="5.36879">
        <ele>853.9</ele>
        <time>2021-05-27T09:57:53Z</time>
      </trkpt>
      <trkpt lat="43.99642" lon="5.36892">
        <ele>854.67</ele>
        <time>2021-05-27T09:58:07Z</time>
      </trkpt>
      <trkpt lat="43.99655" lon="5.36906">
        <ele>855.68</ele>
        <time>2021-05-27T09:58:22Z</time>
      </trkpt>
      <trkpt lat="43.99667" lon="5.36921">
        <ele>857.11</ele>
        <time>2021-05-27T09:58:39Z</time>
      </trkpt>
      <trkpt lat="43.99681" lon="5.36937">
        <ele>857.84</ele>
        <time>2021-05-27T09:58:56Z</time>
      </trkpt>
      <trkpt lat="43.9969" lon="5.36953">
        <ele>858.92</ele>
        <time>2021-05-27T09:59:10Z</time>
      </trkpt>
      <trkpt lat="43.99692" lon="5.36955">
        <ele>859.04</ele>
        <time>2021-05-27T09:59:12Z</time>
      </trkpt>
      <trkpt lat="43.99695" lon="5.36959">
        <ele>859.42</ele>
        <time>2021-05-27T09:59:17Z</time>
      </trkpt>
      <trkpt lat="43.99706" lon="5.36972">
        <ele>860.55</ele>
        <time>2021-05-27T09:59:33Z</time>
      </trkpt>
      <trkpt lat="43.99717" lon="5.36986">
        <ele>861.46</ele>
        <time>2021-05-27T09:59:50Z</time>
      </trkpt>
      <trkpt lat="43.99728" lon="5.36999">
        <ele>862.15</ele>
        <time>2021-05-27T10:00:05Z</time>
      </trkpt>
      <trkpt lat="43.99738" lon="5.37016">
        <ele>862.67</ele>
        <time>2021-05-27T10:00:22Z</time>
      </trkpt>
      <trkpt lat="43.99747" lon="5.37033">
        <ele>863.44</ele>
        <time>2021-05-27T10:00:40Z</time>
      </trkpt>
      <trkpt lat="43.99753" lon="5.37054">
        <ele>864.68</ele>
        <time>2021-05-27T10:00:58Z</time>
      </trkpt>
      <trkpt lat="43.99762" lon="5.37072">
        <ele>865.86</ele>
        <time>2021-05-27T10:01:16Z</time>
      </trkpt>
      <trkpt lat="43.99769" lon="5.37083">
        <ele>866.89</ele>
        <time>2021-05-27T10:01:29Z</time>
      </trkpt>
      <trkpt lat="43.99778" lon="5.37104">
        <ele>868.24</ele>
        <time>2021-05-27T10:01:46Z</time>
      </trkpt>
      <trkpt lat="43.99788" lon="5.37127">
        <ele>869.58</ele>
        <time>2021-05-27T10:02:05Z</time>
      </trkpt>
      <trkpt lat="43.99802" lon="5.37161">
        <ele>871.92</ele>
        <time>2021-05-27T10:02:33Z</time>
      </trkpt>
      <trkpt lat="43.99814" lon="5.37184">
        <ele>873.62</ele>
        <time>2021-05-27T10:02:55Z</time>
      </trkpt>
      <trkpt lat="43.99825" lon="5.37203">
        <ele>874.77</ele>
        <time>2021-05-27T10:03:11Z</time>
      </trkpt>
      <trkpt lat="43.9984" lon="5.37222">
        <ele>876.46</ele>
        <time>2021-05-27T10:03:36Z</time>
      </trkpt>
      <trkpt lat="43.99834" lon="5.37224">
        <ele>877.08</ele>
        <time>2021-05-27T10:04:28Z</time>
      </trkpt>
      <trkpt lat="43.99848" lon="5.3724">
        <ele>877.39</ele>
        <time>2021-05-27T10:04:45Z</time>
      </trkpt>
      <trkpt lat="43.99863" lon="5.37261">
        <ele>878.57</ele>
        <time>2021-05-27T10:05:03Z</time>
      </trkpt>
      <trkpt lat="43.99877" lon="5.37273">
        <ele>879.37</ele>
        <time>2021-05-27T10:05:20Z</time>
      </trkpt>
      <trkpt lat="43.99889" lon="5.37292">
        <ele>880.66</ele>
        <time>2021-05-27T10:05:39Z</time>
      </trkpt>
      <trkpt lat="43.999" lon="5.37309">
        <ele>880.96</ele>
        <time>2021-05-27T10:05:56Z</time>
      </trkpt>
      <trkpt lat="43.99915" lon="5.37325">
        <ele>881.51</ele>
        <time>2021-05-27T10:06:13Z</time>
      </trkpt>
      <trkpt lat="43.99923" lon="5.37341">
        <ele>881.84</ele>
        <time>2021-05-27T10:06:26Z</time>
      </trkpt>
      <trkpt lat="43.99936" lon="5.37366">
        <ele>882.88</ele>
        <time>2021-05-27T10:06:46Z</time>
      </trkpt>
      <trkpt lat="43.99944" lon="5.37372">
        <ele>883.15</ele>
        <time>2021-05-27T10:06:57Z</time>
      </trkpt>
      <trkpt lat="43.99951" lon="5.37385">
        <ele>883.73</ele>
        <time>2021-05-27T10:07:14Z</time>
      </trkpt>
      <trkpt lat="43.99951" lon="5.37401">
        <ele>884.19</ele>
        <time>2021-05-27T10:07:29Z</time>
      </trkpt>
      <trkpt lat="43.99953" lon="5.37427">
        <ele>885.26</ele>
        <time>2021-05-27T10:07:50Z</time>
      </trkpt>
      <trkpt lat="43.99964" lon="5.37456">
        <ele>887.4</ele>
        <time>2021-05-27T10:08:14Z</time>
      </trkpt>
      <trkpt lat="43.99967" lon="5.37477">
        <ele>888.79</ele>
        <time>2021-05-27T10:08:30Z</time>
      </trkpt>
      <trkpt lat="43.99973" lon="5.37501">
        <ele>891.06</ele>
        <time>2021-05-27T10:08:53Z</time>
      </trkpt>
      <trkpt lat="43.9998" lon="5.37524">
        <ele>893.25</ele>
        <time>2021-05-27T10:09:15Z</time>
      </trkpt>
      <trkpt lat="43.99989" lon="5.3756">
        <ele>896.33</ele>
        <time>2021-05-27T10:09:46Z</time>
      </trkpt>
      <trkpt lat="43.99995" lon="5.37588">
        <ele>898.66</ele>
        <time>2021-05-27T10:10:11Z</time>
      </trkpt>
      <trkpt lat="44.00004" lon="5.37612">
        <ele>901.35</ele>
        <time>2021-05-27T10:10:36Z</time>
      </trkpt>
      <trkpt lat="44.00011" lon="5.3764">
        <ele>903.64</ele>
        <time>2021-05-27T10:11:00Z</time>
      </trkpt>
      <trkpt lat="44.0002" lon="5.37673">
        <ele>906.46</ele>
        <time>2021-05-27T10:11:26Z</time>
      </trkpt>
      <trkpt lat="44.00024" lon="5.37692">
        <ele>908.3</ele>
        <time>2021-05-27T10:11:43Z</time>
      </trkpt>
      <trkpt lat="44.00028" lon="5.37719">
        <ele>910.89</ele>
        <time>2021-05-27T10:12:10Z</time>
      </trkpt>
      <trkpt lat="44.00031" lon="5.37728">
        <ele>912.25</ele>
        <time>2021-05-27T10:12:36Z</time>
      </trkpt>
      <trkpt lat="44.00038" lon="5.37747">
        <ele>912.49</ele>
        <time>2021-05-27T10:12:55Z</time>
      </trkpt>
      <trkpt lat="44.00044" lon="5.37773">
        <ele>915.02</ele>
        <time>2021-05-27T10:13:18Z</time>
      </trkpt>
      <trkpt lat="44.00052" lon="5.37797">
        <ele>917.04</ele>
        <time>2021-05-27T10:13:39Z</time>
      </trkpt>
      <trkpt lat="44.00065" lon="5.37825">
        <ele>918.97</ele>
        <time>2021-05-27T10:14:02Z</time>
      </trkpt>
      <trkpt lat="44.00073" lon="5.37852">
        <ele>921.15</ele>
        <time>2021-05-27T10:14:24Z</time>
      </trkpt>
      <trkpt lat="44.00076" lon="5.37875">
        <ele>923.4</ele>
        <time>2021-05-27T10:14:45Z</time>
      </trkpt>
      <trkpt lat="44.0007" lon="5.37889">
        <ele>925.29</ele>
        <time>2021-05-27T10:15:00Z</time>
      </trkpt>
      <trkpt lat="44.00067" lon="5.37896">
        <ele>925.94</ele>
        <time>2021-05-27T10:15:10Z</time>
      </trkpt>
      <trkpt lat="44.00065" lon="5.379">
        <ele>926.25</ele>
        <time>2021-05-27T10:15:37Z</time>
      </trkpt>
      <trkpt lat="44.00063" lon="5.37907">
        <ele>926.29</ele>
        <time>2021-05-27T10:16:21Z</time>
      </trkpt>
      <trkpt lat="44.00063" lon="5.37905">
        <ele>926.89</ele>
        <time>2021-05-27T10:17:07Z</time>
      </trkpt>
      <trkpt lat="44.0006" lon="5.37898">
        <ele>926.9</ele>
        <time>2021-05-27T10:17:51Z</time>
      </trkpt>
      <trkpt lat="44.0006" lon="5.379">
        <ele>926.94</ele>
        <time>2021-05-27T10:18:28Z</time>
      </trkpt>
      <trkpt lat="44.00061" lon="5.37901">
        <ele>926.9</ele>
        <time>2021-05-27T10:18:56Z</time>
      </trkpt>
      <trkpt lat="44.00059" lon="5.37898">
        <ele>926.36</ele>
        <time>2021-05-27T10:20:47Z</time>
      </trkpt>
      <trkpt lat="44.0006" lon="5.37899">
        <ele>926.86</ele>
        <time>2021-05-27T10:21:40Z</time>
      </trkpt>
      <trkpt lat="44.0006" lon="5.37898">
        <ele>927.13</ele>
        <time>2021-05-27T10:23:38Z</time>
      </trkpt>
      <trkpt lat="44.00062" lon="5.37898">
        <ele>927.54</ele>
        <time>2021-05-27T10:25:49Z</time>
      </trkpt>
      <trkpt lat="44.00062" lon="5.37899">
        <ele>927.79</ele>
        <time>2021-05-27T10:28:29Z</time>
      </trkpt>
      <trkpt lat="44.00062" lon="5.37899">
        <ele>928.94</ele>
        <time>2021-05-27T10:30:39Z</time>
      </trkpt>
      <trkpt lat="44.00061" lon="5.37902">
        <ele>929.69</ele>
        <time>2021-05-27T10:33:41Z</time>
      </trkpt>
      <trkpt lat="44.00061" lon="5.379">
        <ele>929.87</ele>
        <time>2021-05-27T10:36:43Z</time>
      </trkpt>
      <trkpt lat="44.00062" lon="5.379">
        <ele>930.27</ele>
        <time>2021-05-27T10:38:49Z</time>
      </trkpt>
      <trkpt lat="44.00064" lon="5.37899">
        <ele>930.6</ele>
        <time>2021-05-27T10:40:43Z</time>
      </trkpt>
      <trkpt lat="44.00063" lon="5.379">
        <ele>930.78</ele>
        <time>2021-05-27T10:42:20Z</time>
      </trkpt>
      <trkpt lat="44.00062" lon="5.37898">
        <ele>930.61</ele>
        <time>2021-05-27T10:43:20Z</time>
      </trkpt>
      <trkpt lat="44.00063" lon="5.37899">
        <ele>930.73</ele>
        <time>2021-05-27T10:44:49Z</time>
      </trkpt>
      <trkpt lat="44.00061" lon="5.37899">
        <ele>930.47</ele>
        <time>2021-05-27T10:47:23Z</time>
      </trkpt>
      <trkpt lat="44.00062" lon="5.37899">
        <ele>930.28</ele>
        <time>2021-05-27T10:51:01Z</time>
      </trkpt>
      <trkpt lat="44.00063" lon="5.37902">
        <ele>930.23</ele>
        <time>2021-05-27T10:53:50Z</time>
      </trkpt>
      <trkpt lat="44.00063" lon="5.379">
        <ele>930.23</ele>
        <time>2021-05-27T10:56:54Z</time>
      </trkpt>
      <trkpt lat="44.00062" lon="5.37901">
        <ele>930.82</ele>
        <time>2021-05-27T11:00:38Z</time>
      </trkpt>
      <trkpt lat="44.0006" lon="5.37902">
        <ele>930.78</ele>
        <time>2021-05-27T11:02:59Z</time>
      </trkpt>
      <trkpt lat="44.00063" lon="5.37901">
        <ele>932.03</ele>
        <time>2021-05-27T11:05:00Z</time>
      </trkpt>
      <trkpt lat="44.00064" lon="5.37905">
        <ele>932.39</ele>
        <time>2021-05-27T11:05:25Z</time>
      </trkpt>
      <trkpt lat="44.00065" lon="5.37906">
        <ele>932.51</ele>
        <time>2021-05-27T11:05:48Z</time>
      </trkpt>
      <trkpt lat="44.00065" lon="5.37907">
        <ele>932.64</ele>
        <time>2021-05-27T11:06:21Z</time>
      </trkpt>
      <trkpt lat="44.00066" lon="5.37909">
        <ele>932.68</ele>
        <time>2021-05-27T11:07:24Z</time>
      </trkpt>
      <trkpt lat="44.00066" lon="5.37913">
        <ele>932.76</ele>
        <time>2021-05-27T11:07:58Z</time>
      </trkpt>
      <trkpt lat="44.0006" lon="5.3792">
        <ele>932.86</ele>
        <time>2021-05-27T11:08:22Z</time>
      </trkpt>
      <trkpt lat="44.00049" lon="5.37933">
        <ele>933.66</ele>
        <time>2021-05-27T11:08:38Z</time>
      </trkpt>
      <trkpt lat="44.00041" lon="5.37936">
        <ele>933.87</ele>
        <time>2021-05-27T11:08:47Z</time>
      </trkpt>
      <trkpt lat="44.00023" lon="5.37946">
        <ele>933.6</ele>
        <time>2021-05-27T11:09:05Z</time>
      </trkpt>
      <trkpt lat="44.00015" lon="5.37951">
        <ele>933.36</ele>
        <time>2021-05-27T11:09:13Z</time>
      </trkpt>
      <trkpt lat="44.00001" lon="5.37963">
        <ele>933.01</ele>
        <time>2021-05-27T11:09:29Z</time>
      </trkpt>
      <trkpt lat="43.99987" lon="5.37974">
        <ele>933.02</ele>
        <time>2021-05-27T11:09:46Z</time>
      </trkpt>
      <trkpt lat="43.99971" lon="5.37988">
        <ele>934.39</ele>
        <time>2021-05-27T11:10:07Z</time>
      </trkpt>
      <trkpt lat="43.99956" lon="5.38002">
        <ele>935.86</ele>
        <time>2021-05-27T11:10:28Z</time>
      </trkpt>
      <trkpt lat="43.99944" lon="5.38006">
        <ele>936.93</ele>
        <time>2021-05-27T11:10:41Z</time>
      </trkpt>
      <trkpt lat="43.99928" lon="5.38014">
        <ele>937.93</ele>
        <time>2021-05-27T11:11:02Z</time>
      </trkpt>
      <trkpt lat="43.99921" lon="5.38018">
        <ele>939.18</ele>
        <time>2021-05-27T11:11:23Z</time>
      </trkpt>
      <trkpt lat="43.9991" lon="5.38023">
        <ele>939.49</ele>
        <time>2021-05-27T11:11:58Z</time>
      </trkpt>
      <trkpt lat="43.99888" lon="5.38036">
        <ele>940.13</ele>
        <time>2021-05-27T11:12:21Z</time>
      </trkpt>
      <trkpt lat="43.99865" lon="5.3805">
        <ele>941.11</ele>
        <time>2021-05-27T11:12:44Z</time>
      </trkpt>
      <trkpt lat="43.99851" lon="5.38059">
        <ele>941.63</ele>
        <time>2021-05-27T11:13:02Z</time>
      </trkpt>
      <trkpt lat="43.99845" lon="5.38063">
        <ele>941.6</ele>
        <time>2021-05-27T11:13:18Z</time>
      </trkpt>
      <trkpt lat="43.99845" lon="5.38064">
        <ele>941.86</ele>
        <time>2021-05-27T11:13:26Z</time>
      </trkpt>
      <trkpt lat="43.99842" lon="5.38066">
        <ele>941.9</ele>
        <time>2021-05-27T11:13:29Z</time>
      </trkpt>
      <trkpt lat="43.99823" lon="5.38088">
        <ele>942.45</ele>
        <time>2021-05-27T11:13:53Z</time>
      </trkpt>
      <trkpt lat="43.99816" lon="5.38105">
        <ele>943.75</ele>
        <time>2021-05-27T11:14:13Z</time>
      </trkpt>
      <trkpt lat="43.99814" lon="5.38107">
        <ele>943.95</ele>
        <time>2021-05-27T11:14:36Z</time>
      </trkpt>
      <trkpt lat="43.99812" lon="5.38112">
        <ele>944.3</ele>
        <time>2021-05-27T11:14:59Z</time>
      </trkpt>
      <trkpt lat="43.99807" lon="5.38128">
        <ele>944.93</ele>
        <time>2021-05-27T11:15:24Z</time>
      </trkpt>
      <trkpt lat="43.99803" lon="5.38149">
        <ele>946.47</ele>
        <time>2021-05-27T11:15:40Z</time>
      </trkpt>
      <trkpt lat="43.998" lon="5.38164">
        <ele>947.76</ele>
        <time>2021-05-27T11:15:52Z</time>
      </trkpt>
      <trkpt lat="43.99792" lon="5.38185">
        <ele>948.64</ele>
        <time>2021-05-27T11:16:10Z</time>
      </trkpt>
      <trkpt lat="43.9979" lon="5.38198">
        <ele>948.85</ele>
        <time>2021-05-27T11:16:21Z</time>
      </trkpt>
      <trkpt lat="43.99789" lon="5.38212">
        <ele>949.68</ele>
        <time>2021-05-27T11:16:36Z</time>
      </trkpt>
      <trkpt lat="43.99787" lon="5.38218">
        <ele>950.16</ele>
        <time>2021-05-27T11:16:44Z</time>
      </trkpt>
      <trkpt lat="43.99776" lon="5.3825">
        <ele>950.83</ele>
        <time>2021-05-27T11:17:07Z</time>
      </trkpt>
      <trkpt lat="43.99762" lon="5.38275">
        <ele>951.87</ele>
        <time>2021-05-27T11:17:29Z</time>
      </trkpt>
      <trkpt lat="43.9975" lon="5.38297">
        <ele>953.44</ele>
        <time>2021-05-27T11:17:47Z</time>
      </trkpt>
      <trkpt lat="43.99736" lon="5.38317">
        <ele>954.22</ele>
        <time>2021-05-27T11:18:05Z</time>
      </trkpt>
      <trkpt lat="43.99734" lon="5.38321">
        <ele>954.45</ele>
        <time>2021-05-27T11:18:08Z</time>
      </trkpt>
      <trkpt lat="43.99725" lon="5.38343">
        <ele>955.37</ele>
        <time>2021-05-27T11:18:24Z</time>
      </trkpt>
      <trkpt lat="43.99723" lon="5.38345">
        <ele>955.46</ele>
        <time>2021-05-27T11:18:26Z</time>
      </trkpt>
      <trkpt lat="43.99714" lon="5.38364">
        <ele>956.83</ele>
        <time>2021-05-27T11:18:44Z</time>
      </trkpt>
      <trkpt lat="43.99698" lon="5.38373">
        <ele>958.81</ele>
        <time>2021-05-27T11:19:06Z</time>
      </trkpt>
      <trkpt lat="43.99683" lon="5.38392">
        <ele>960.17</ele>
        <time>2021-05-27T11:19:27Z</time>
      </trkpt>
      <trkpt lat="43.99673" lon="5.38403">
        <ele>961.21</ele>
        <time>2021-05-27T11:19:42Z</time>
      </trkpt>
      <trkpt lat="43.99663" lon="5.38413">
        <ele>961.62</ele>
        <time>2021-05-27T11:19:54Z</time>
      </trkpt>
      <trkpt lat="43.99648" lon="5.38422">
        <ele>962.32</ele>
        <time>2021-05-27T11:20:12Z</time>
      </trkpt>
      <trkpt lat="43.99627" lon="5.3843">
        <ele>963.59</ele>
        <time>2021-05-27T11:20:34Z</time>
      </trkpt>
      <trkpt lat="43.99602" lon="5.38441">
        <ele>964.26</ele>
        <time>2021-05-27T11:20:57Z</time>
      </trkpt>
      <trkpt lat="43.99601" lon="5.38442">
        <ele>964.28</ele>
        <time>2021-05-27T11:20:58Z</time>
      </trkpt>
      <trkpt lat="43.99583" lon="5.38448">
        <ele>964.87</ele>
        <time>2021-05-27T11:21:15Z</time>
      </trkpt>
      <trkpt lat="43.99558" lon="5.38436">
        <ele>965.94</ele>
        <time>2021-05-27T11:21:41Z</time>
      </trkpt>
      <trkpt lat="43.99539" lon="5.38436">
        <ele>966.82</ele>
        <time>2021-05-27T11:22:02Z</time>
      </trkpt>
      <trkpt lat="43.99518" lon="5.38447">
        <ele>967.94</ele>
        <time>2021-05-27T11:22:23Z</time>
      </trkpt>
      <trkpt lat="43.99501" lon="5.3846">
        <ele>968.84</ele>
        <time>2021-05-27T11:22:42Z</time>
      </trkpt>
      <trkpt lat="43.99487" lon="5.38471">
        <ele>969.83</ele>
        <time>2021-05-27T11:23:02Z</time>
      </trkpt>
      <trkpt lat="43.99485" lon="5.38473">
        <ele>970.12</ele>
        <time>2021-05-27T11:23:10Z</time>
      </trkpt>
      <trkpt lat="43.99483" lon="5.38474">
        <ele>970.14</ele>
        <time>2021-05-27T11:23:12Z</time>
      </trkpt>
      <trkpt lat="43.99479" lon="5.38477">
        <ele>970.19</ele>
        <time>2021-05-27T11:23:16Z</time>
      </trkpt>
      <trkpt lat="43.99456" lon="5.38491">
        <ele>971.55</ele>
        <time>2021-05-27T11:23:40Z</time>
      </trkpt>
      <trkpt lat="43.9943" lon="5.38507">
        <ele>972.27</ele>
        <time>2021-05-27T11:24:06Z</time>
      </trkpt>
      <trkpt lat="43.99403" lon="5.38524">
        <ele>973.66</ele>
        <time>2021-05-27T11:24:31Z</time>
      </trkpt>
      <trkpt lat="43.99372" lon="5.38542">
        <ele>975.26</ele>
        <time>2021-05-27T11:24:59Z</time>
      </trkpt>
      <trkpt lat="43.99354" lon="5.38557">
        <ele>975.87</ele>
        <time>2021-05-27T11:25:17Z</time>
      </trkpt>
      <trkpt lat="43.99344" lon="5.38562">
        <ele>976.48</ele>
        <time>2021-05-27T11:25:36Z</time>
      </trkpt>
      <trkpt lat="43.99335" lon="5.38565">
        <ele>976.89</ele>
        <time>2021-05-27T11:25:54Z</time>
      </trkpt>
      <trkpt lat="43.99322" lon="5.38571">
        <ele>977.14</ele>
        <time>2021-05-27T11:26:12Z</time>
      </trkpt>
      <trkpt lat="43.99312" lon="5.38578">
        <ele>978.06</ele>
        <time>2021-05-27T11:26:22Z</time>
      </trkpt>
      <trkpt lat="43.99296" lon="5.38585">
        <ele>978.65</ele>
        <time>2021-05-27T11:26:37Z</time>
      </trkpt>
      <trkpt lat="43.99272" lon="5.38585">
        <ele>980.13</ele>
        <time>2021-05-27T11:26:58Z</time>
      </trkpt>
      <trkpt lat="43.99253" lon="5.386">
        <ele>981.23</ele>
        <time>2021-05-27T11:27:21Z</time>
      </trkpt>
      <trkpt lat="43.99249" lon="5.38608">
        <ele>981.55</ele>
        <time>2021-05-27T11:27:43Z</time>
      </trkpt>
      <trkpt lat="43.99248" lon="5.38613">
        <ele>981.61</ele>
        <time>2021-05-27T11:28:09Z</time>
      </trkpt>
      <trkpt lat="43.99235" lon="5.38627">
        <ele>981.48</ele>
        <time>2021-05-27T11:28:27Z</time>
      </trkpt>
      <trkpt lat="43.99223" lon="5.38627">
        <ele>981.74</ele>
        <time>2021-05-27T11:28:44Z</time>
      </trkpt>
      <trkpt lat="43.99206" lon="5.38627">
        <ele>981.83</ele>
        <time>2021-05-27T11:29:13Z</time>
      </trkpt>
      <trkpt lat="43.99186" lon="5.38624">
        <ele>981.75</ele>
        <time>2021-05-27T11:29:37Z</time>
      </trkpt>
      <trkpt lat="43.9916" lon="5.38618">
        <ele>981.13</ele>
        <time>2021-05-27T11:30:06Z</time>
      </trkpt>
      <trkpt lat="43.99133" lon="5.38619">
        <ele>979.84</ele>
        <time>2021-05-27T11:30:33Z</time>
      </trkpt>
      <trkpt lat="43.9913" lon="5.38615">
        <ele>979.41</ele>
        <time>2021-05-27T11:30:58Z</time>
      </trkpt>
      <trkpt lat="43.99132" lon="5.38617">
        <ele>979.34</ele>
        <time>2021-05-27T11:31:34Z</time>
      </trkpt>
      <trkpt lat="43.99126" lon="5.38618">
        <ele>979.32</ele>
        <time>2021-05-27T11:32:19Z</time>
      </trkpt>
      <trkpt lat="43.99116" lon="5.38609">
        <ele>979.04</ele>
        <time>2021-05-27T11:32:40Z</time>
      </trkpt>
      <trkpt lat="43.99096" lon="5.38605">
        <ele>977.86</ele>
        <time>2021-05-27T11:33:06Z</time>
      </trkpt>
      <trkpt lat="43.99077" lon="5.38583">
        <ele>977.62</ele>
        <time>2021-05-27T11:33:31Z</time>
      </trkpt>
      <trkpt lat="43.9906" lon="5.38562">
        <ele>977.01</ele>
        <time>2021-05-27T11:33:54Z</time>
      </trkpt>
      <trkpt lat="43.99038" lon="5.38546">
        <ele>975.81</ele>
        <time>2021-05-27T11:34:20Z</time>
      </trkpt>
      <trkpt lat="43.99015" lon="5.38546">
        <ele>973.39</ele>
        <time>2021-05-27T11:34:42Z</time>
      </trkpt>
      <trkpt lat="43.99003" lon="5.38529">
        <ele>973.98</ele>
        <time>2021-05-27T11:35:02Z</time>
      </trkpt>
      <trkpt lat="43.98987" lon="5.38514">
        <ele>972.84</ele>
        <time>2021-05-27T11:35:19Z</time>
      </trkpt>
      <trkpt lat="43.98979" lon="5.38504">
        <ele>972.18</ele>
        <time>2021-05-27T11:35:29Z</time>
      </trkpt>
      <trkpt lat="43.98978" lon="5.385">
        <ele>971.86</ele>
        <time>2021-05-27T11:35:32Z</time>
      </trkpt>
      <trkpt lat="43.98972" lon="5.38479">
        <ele>972.59</ele>
        <time>2021-05-27T11:35:51Z</time>
      </trkpt>
      <trkpt lat="43.98967" lon="5.38449">
        <ele>973.49</ele>
        <time>2021-05-27T11:36:16Z</time>
      </trkpt>
      <trkpt lat="43.98957" lon="5.38435">
        <ele>973.51</ele>
        <time>2021-05-27T11:36:29Z</time>
      </trkpt>
      <trkpt lat="43.98942" lon="5.38417">
        <ele>973.27</ele>
        <time>2021-05-27T11:36:53Z</time>
      </trkpt>
      <trkpt lat="43.98926" lon="5.38402">
        <ele>972.16</ele>
        <time>2021-05-27T11:37:14Z</time>
      </trkpt>
      <trkpt lat="43.98913" lon="5.38383">
        <ele>971.16</ele>
        <time>2021-05-27T11:37:36Z</time>
      </trkpt>
      <trkpt lat="43.98902" lon="5.38359">
        <ele>972.2</ele>
        <time>2021-05-27T11:37:54Z</time>
      </trkpt>
      <trkpt lat="43.98889" lon="5.38347">
        <ele>972.68</ele>
        <time>2021-05-27T11:38:12Z</time>
      </trkpt>
      <trkpt lat="43.98878" lon="5.38342">
        <ele>971.08</ele>
        <time>2021-05-27T11:38:26Z</time>
      </trkpt>
      <trkpt lat="43.98865" lon="5.38333">
        <ele>968.94</ele>
        <time>2021-05-27T11:38:44Z</time>
      </trkpt>
      <trkpt lat="43.98857" lon="5.38319">
        <ele>967.98</ele>
        <time>2021-05-27T11:38:57Z</time>
      </trkpt>
      <trkpt lat="43.98845" lon="5.38302">
        <ele>967.38</ele>
        <time>2021-05-27T11:39:13Z</time>
      </trkpt>
      <trkpt lat="43.98838" lon="5.38295">
        <ele>966.99</ele>
        <time>2021-05-27T11:39:25Z</time>
      </trkpt>
      <trkpt lat="43.98828" lon="5.38279">
        <ele>965.87</ele>
        <time>2021-05-27T11:39:40Z</time>
      </trkpt>
      <trkpt lat="43.98816" lon="5.38267">
        <ele>964.97</ele>
        <time>2021-05-27T11:39:56Z</time>
      </trkpt>
      <trkpt lat="43.98815" lon="5.38264">
        <ele>964.69</ele>
        <time>2021-05-27T11:39:58Z</time>
      </trkpt>
      <trkpt lat="43.98801" lon="5.38247">
        <ele>962.34</ele>
        <time>2021-05-27T11:40:16Z</time>
      </trkpt>
      <trkpt lat="43.98795" lon="5.38238">
        <ele>961.86</ele>
        <time>2021-05-27T11:40:24Z</time>
      </trkpt>
      <trkpt lat="43.98782" lon="5.38221">
        <ele>960.42</ele>
        <time>2021-05-27T11:40:42Z</time>
      </trkpt>
      <trkpt lat="43.98771" lon="5.3821">
        <ele>959.59</ele>
        <time>2021-05-27T11:40:57Z</time>
      </trkpt>
      <trkpt lat="43.98764" lon="5.3819">
        <ele>958.67</ele>
        <time>2021-05-27T11:41:12Z</time>
      </trkpt>
      <trkpt lat="43.98754" lon="5.38178">
        <ele>958.48</ele>
        <time>2021-05-27T11:41:29Z</time>
      </trkpt>
      <trkpt lat="43.98737" lon="5.38164">
        <ele>956.09</ele>
        <time>2021-05-27T11:41:49Z</time>
      </trkpt>
      <trkpt lat="43.98728" lon="5.38159">
        <ele>954.76</ele>
        <time>2021-05-27T11:41:58Z</time>
      </trkpt>
      <trkpt lat="43.98725" lon="5.38157">
        <ele>954.43</ele>
        <time>2021-05-27T11:42:01Z</time>
      </trkpt>
      <trkpt lat="43.98705" lon="5.3814">
        <ele>952.01</ele>
        <time>2021-05-27T11:42:22Z</time>
      </trkpt>
      <trkpt lat="43.98691" lon="5.38117">
        <ele>950.77</ele>
        <time>2021-05-27T11:42:42Z</time>
      </trkpt>
      <trkpt lat="43.98684" lon="5.38105">
        <ele>950.52</ele>
        <time>2021-05-27T11:42:57Z</time>
      </trkpt>
      <trkpt lat="43.98673" lon="5.38088">
        <ele>949.92</ele>
        <time>2021-05-27T11:43:15Z</time>
      </trkpt>
      <trkpt lat="43.98665" lon="5.38074">
        <ele>949.36</ele>
        <time>2021-05-27T11:43:29Z</time>
      </trkpt>
      <trkpt lat="43.98654" lon="5.38053">
        <ele>949.09</ele>
        <time>2021-05-27T11:43:48Z</time>
      </trkpt>
      <trkpt lat="43.98646" lon="5.3804">
        <ele>949.08</ele>
        <time>2021-05-27T11:44:04Z</time>
      </trkpt>
      <trkpt lat="43.98629" lon="5.38027">
        <ele>948.31</ele>
        <time>2021-05-27T11:44:30Z</time>
      </trkpt>
      <trkpt lat="43.98606" lon="5.38022">
        <ele>947.59</ele>
        <time>2021-05-27T11:44:56Z</time>
      </trkpt>
      <trkpt lat="43.98586" lon="5.38013">
        <ele>946.61</ele>
        <time>2021-05-27T11:45:22Z</time>
      </trkpt>
      <trkpt lat="43.98559" lon="5.38006">
        <ele>945.18</ele>
        <time>2021-05-27T11:45:46Z</time>
      </trkpt>
      <trkpt lat="43.98544" lon="5.38002">
        <ele>942.47</ele>
        <time>2021-05-27T11:46:07Z</time>
      </trkpt>
      <trkpt lat="43.98527" lon="5.37992">
        <ele>939.8</ele>
        <time>2021-05-27T11:46:30Z</time>
      </trkpt>
      <trkpt lat="43.98506" lon="5.37985">
        <ele>937.05</ele>
        <time>2021-05-27T11:46:55Z</time>
      </trkpt>
      <trkpt lat="43.98491" lon="5.37978">
        <ele>934.02</ele>
        <time>2021-05-27T11:47:17Z</time>
      </trkpt>
      <trkpt lat="43.9847" lon="5.37969">
        <ele>931.29</ele>
        <time>2021-05-27T11:47:38Z</time>
      </trkpt>
      <trkpt lat="43.98446" lon="5.3795">
        <ele>928.25</ele>
        <time>2021-05-27T11:48:02Z</time>
      </trkpt>
      <trkpt lat="43.98421" lon="5.37939">
        <ele>925.11</ele>
        <time>2021-05-27T11:48:26Z</time>
      </trkpt>
      <trkpt lat="43.98405" lon="5.37926">
        <ele>922.65</ele>
        <time>2021-05-27T11:48:46Z</time>
      </trkpt>
      <trkpt lat="43.98393" lon="5.37915">
        <ele>920.42</ele>
        <time>2021-05-27T11:49:07Z</time>
      </trkpt>
      <trkpt lat="43.98383" lon="5.37905">
        <ele>917.7</ele>
        <time>2021-05-27T11:49:25Z</time>
      </trkpt>
      <trkpt lat="43.98364" lon="5.37887">
        <ele>914.44</ele>
        <time>2021-05-27T11:49:48Z</time>
      </trkpt>
      <trkpt lat="43.98346" lon="5.37863">
        <ele>911.4</ele>
        <time>2021-05-27T11:50:12Z</time>
      </trkpt>
      <trkpt lat="43.98328" lon="5.3784">
        <ele>908.3</ele>
        <time>2021-05-27T11:50:34Z</time>
      </trkpt>
      <trkpt lat="43.98313" lon="5.37816">
        <ele>905.25</ele>
        <time>2021-05-27T11:50:56Z</time>
      </trkpt>
      <trkpt lat="43.98294" lon="5.37799">
        <ele>902.32</ele>
        <time>2021-05-27T11:51:18Z</time>
      </trkpt>
      <trkpt lat="43.98281" lon="5.37788">
        <ele>899.29</ele>
        <time>2021-05-27T11:51:36Z</time>
      </trkpt>
      <trkpt lat="43.98266" lon="5.37775">
        <ele>896.26</ele>
        <time>2021-05-27T11:51:55Z</time>
      </trkpt>
      <trkpt lat="43.9825" lon="5.37761">
        <ele>893.16</ele>
        <time>2021-05-27T11:52:17Z</time>
      </trkpt>
      <trkpt lat="43.98236" lon="5.37749">
        <ele>890.09</ele>
        <time>2021-05-27T11:52:35Z</time>
      </trkpt>
      <trkpt lat="43.98219" lon="5.37734">
        <ele>887.05</ele>
        <time>2021-05-27T11:52:58Z</time>
      </trkpt>
      <trkpt lat="43.98204" lon="5.37724">
        <ele>884.03</ele>
        <time>2021-05-27T11:53:19Z</time>
      </trkpt>
      <trkpt lat="43.98191" lon="5.37708">
        <ele>880.97</ele>
        <time>2021-05-27T11:53:41Z</time>
      </trkpt>
      <trkpt lat="43.98177" lon="5.37687">
        <ele>878.2</ele>
        <time>2021-05-27T11:54:04Z</time>
      </trkpt>
      <trkpt lat="43.98162" lon="5.3767">
        <ele>875.31</ele>
        <time>2021-05-27T11:54:26Z</time>
      </trkpt>
      <trkpt lat="43.98147" lon="5.37649">
        <ele>872.69</ele>
        <time>2021-05-27T11:54:48Z</time>
      </trkpt>
      <trkpt lat="43.9813" lon="5.37632">
        <ele>869.67</ele>
        <time>2021-05-27T11:55:10Z</time>
      </trkpt>
      <trkpt lat="43.98116" lon="5.37616">
        <ele>866.62</ele>
        <time>2021-05-27T11:55:31Z</time>
      </trkpt>
      <trkpt lat="43.98098" lon="5.37601">
        <ele>863.55</ele>
        <time>2021-05-27T11:55:53Z</time>
      </trkpt>
      <trkpt lat="43.98078" lon="5.37586">
        <ele>860.43</ele>
        <time>2021-05-27T11:56:17Z</time>
      </trkpt>
      <trkpt lat="43.9806" lon="5.37578">
        <ele>857.63</ele>
        <time>2021-05-27T11:56:37Z</time>
      </trkpt>
      <trkpt lat="43.98042" lon="5.37573">
        <ele>854.51</ele>
        <time>2021-05-27T11:56:58Z</time>
      </trkpt>
      <trkpt lat="43.98023" lon="5.37559">
        <ele>851.76</ele>
        <time>2021-05-27T11:57:22Z</time>
      </trkpt>
      <trkpt lat="43.98001" lon="5.37549">
        <ele>849.85</ele>
        <time>2021-05-27T11:57:43Z</time>
      </trkpt>
      <trkpt lat="43.97984" lon="5.37535">
        <ele>848.15</ele>
        <time>2021-05-27T11:58:01Z</time>
      </trkpt>
      <trkpt lat="43.97979" lon="5.37527">
        <ele>847.85</ele>
        <time>2021-05-27T11:58:08Z</time>
      </trkpt>
      <trkpt lat="43.9797" lon="5.37509">
        <ele>846.14</ele>
        <time>2021-05-27T11:58:27Z</time>
      </trkpt>
      <trkpt lat="43.9795" lon="5.3749">
        <ele>845.41</ele>
        <time>2021-05-27T11:58:51Z</time>
      </trkpt>
      <trkpt lat="43.97941" lon="5.37482">
        <ele>844.28</ele>
        <time>2021-05-27T11:59:04Z</time>
      </trkpt>
      <trkpt lat="43.97935" lon="5.37473">
        <ele>843.97</ele>
        <time>2021-05-27T11:59:53Z</time>
      </trkpt>
      <trkpt lat="43.97937" lon="5.37471">
        <ele>843.22</ele>
        <time>2021-05-27T12:00:58Z</time>
      </trkpt>
      <trkpt lat="43.97926" lon="5.3747">
        <ele>842.71</ele>
        <time>2021-05-27T12:01:28Z</time>
      </trkpt>
      <trkpt lat="43.97921" lon="5.37467">
        <ele>842.54</ele>
        <time>2021-05-27T12:01:32Z</time>
      </trkpt>
      <trkpt lat="43.97901" lon="5.37458">
        <ele>840.53</ele>
        <time>2021-05-27T12:01:54Z</time>
      </trkpt>
      <trkpt lat="43.9788" lon="5.37453">
        <ele>837.58</ele>
        <time>2021-05-27T12:02:19Z</time>
      </trkpt>
      <trkpt lat="43.97862" lon="5.37445">
        <ele>834.9</ele>
        <time>2021-05-27T12:02:40Z</time>
      </trkpt>
      <trkpt lat="43.97843" lon="5.37433">
        <ele>832.12</ele>
        <time>2021-05-27T12:03:04Z</time>
      </trkpt>
      <trkpt lat="43.97826" lon="5.37425">
        <ele>829.06</ele>
        <time>2021-05-27T12:03:25Z</time>
      </trkpt>
      <trkpt lat="43.9781" lon="5.3742">
        <ele>826.47</ele>
        <time>2021-05-27T12:03:45Z</time>
      </trkpt>
      <trkpt lat="43.97795" lon="5.37411">
        <ele>823.45</ele>
        <time>2021-05-27T12:04:06Z</time>
      </trkpt>
      <trkpt lat="43.97778" lon="5.374">
        <ele>820.75</ele>
        <time>2021-05-27T12:04:30Z</time>
      </trkpt>
      <trkpt lat="43.97759" lon="5.37395">
        <ele>817.68</ele>
        <time>2021-05-27T12:04:52Z</time>
      </trkpt>
      <trkpt lat="43.97741" lon="5.37388">
        <ele>814.62</ele>
        <time>2021-05-27T12:05:12Z</time>
      </trkpt>
      <trkpt lat="43.97726" lon="5.37381">
        <ele>811.52</ele>
        <time>2021-05-27T12:05:35Z</time>
      </trkpt>
      <trkpt lat="43.9771" lon="5.37369">
        <ele>808.35</ele>
        <time>2021-05-27T12:05:59Z</time>
      </trkpt>
      <trkpt lat="43.97694" lon="5.37352">
        <ele>805.89</ele>
        <time>2021-05-27T12:06:22Z</time>
      </trkpt>
      <trkpt lat="43.97681" lon="5.3734">
        <ele>803.68</ele>
        <time>2021-05-27T12:06:41Z</time>
      </trkpt>
      <trkpt lat="43.97664" lon="5.37327">
        <ele>802.43</ele>
        <time>2021-05-27T12:07:02Z</time>
      </trkpt>
      <trkpt lat="43.97654" lon="5.37313">
        <ele>800.99</ele>
        <time>2021-05-27T12:07:22Z</time>
      </trkpt>
      <trkpt lat="43.97641" lon="5.37308">
        <ele>799.93</ele>
        <time>2021-05-27T12:07:43Z</time>
      </trkpt>
      <trkpt lat="43.97631" lon="5.37302">
        <ele>798.57</ele>
        <time>2021-05-27T12:07:53Z</time>
      </trkpt>
      <trkpt lat="43.97622" lon="5.37286">
        <ele>797.67</ele>
        <time>2021-05-27T12:08:11Z</time>
      </trkpt>
      <trkpt lat="43.97608" lon="5.37267">
        <ele>796.64</ele>
        <time>2021-05-27T12:08:30Z</time>
      </trkpt>
      <trkpt lat="43.97592" lon="5.37252">
        <ele>794.65</ele>
        <time>2021-05-27T12:08:53Z</time>
      </trkpt>
      <trkpt lat="43.9757" lon="5.37236">
        <ele>792.1</ele>
        <time>2021-05-27T12:09:22Z</time>
      </trkpt>
      <trkpt lat="43.97556" lon="5.37213">
        <ele>790.1</ele>
        <time>2021-05-27T12:09:41Z</time>
      </trkpt>
      <trkpt lat="43.97541" lon="5.37193">
        <ele>788.25</ele>
        <time>2021-05-27T12:10:00Z</time>
      </trkpt>
      <trkpt lat="43.97528" lon="5.37177">
        <ele>786.2</ele>
        <time>2021-05-27T12:10:17Z</time>
      </trkpt>
      <trkpt lat="43.97517" lon="5.37157">
        <ele>784.35</ele>
        <time>2021-05-27T12:10:37Z</time>
      </trkpt>
      <trkpt lat="43.97509" lon="5.37152">
        <ele>783.17</ele>
        <time>2021-05-27T12:10:47Z</time>
      </trkpt>
      <trkpt lat="43.97492" lon="5.37153">
        <ele>781.42</ele>
        <time>2021-05-27T12:11:03Z</time>
      </trkpt>
      <trkpt lat="43.97478" lon="5.3714">
        <ele>778.99</ele>
        <time>2021-05-27T12:11:19Z</time>
      </trkpt>
      <trkpt lat="43.97464" lon="5.37126">
        <ele>776.95</ele>
        <time>2021-05-27T12:11:38Z</time>
      </trkpt>
      <trkpt lat="43.97463" lon="5.37125">
        <ele>776.91</ele>
        <time>2021-05-27T12:11:39Z</time>
      </trkpt>
      <trkpt lat="43.97449" lon="5.37113">
        <ele>774.51</ele>
        <time>2021-05-27T12:11:58Z</time>
      </trkpt>
      <trkpt lat="43.97433" lon="5.371">
        <ele>772.11</ele>
        <time>2021-05-27T12:12:17Z</time>
      </trkpt>
      <trkpt lat="43.97419" lon="5.37085">
        <ele>769.27</ele>
        <time>2021-05-27T12:12:37Z</time>
      </trkpt>
      <trkpt lat="43.97412" lon="5.37058">
        <ele>766.89</ele>
        <time>2021-05-27T12:12:58Z</time>
      </trkpt>
      <trkpt lat="43.97415" lon="5.37047">
        <ele>765.76</ele>
        <time>2021-05-27T12:13:23Z</time>
      </trkpt>
      <trkpt lat="43.97413" lon="5.37048">
        <ele>765.95</ele>
        <time>2021-05-27T12:14:04Z</time>
      </trkpt>
      <trkpt lat="43.97413" lon="5.3705">
        <ele>765.77</ele>
        <time>2021-05-27T12:14:41Z</time>
      </trkpt>
      <trkpt lat="43.97424" lon="5.37037">
        <ele>765.99</ele>
        <time>2021-05-27T12:15:06Z</time>
      </trkpt>
      <trkpt lat="43.9743" lon="5.37029">
        <ele>765.98</ele>
        <time>2021-05-27T12:15:14Z</time>
      </trkpt>
      <trkpt lat="43.97458" lon="5.37007">
        <ele>765.14</ele>
        <time>2021-05-27T12:15:39Z</time>
      </trkpt>
      <trkpt lat="43.97481" lon="5.37003">
        <ele>764.03</ele>
        <time>2021-05-27T12:15:57Z</time>
      </trkpt>
      <trkpt lat="43.97496" lon="5.37004">
        <ele>762.86</ele>
        <time>2021-05-27T12:16:12Z</time>
      </trkpt>
      <trkpt lat="43.97511" lon="5.37004">
        <ele>761.05</ele>
        <time>2021-05-27T12:16:26Z</time>
      </trkpt>
      <trkpt lat="43.97532" lon="5.36994">
        <ele>757.9</ele>
        <time>2021-05-27T12:16:46Z</time>
      </trkpt>
      <trkpt lat="43.97541" lon="5.36987">
        <ele>755.79</ele>
        <time>2021-05-27T12:17:09Z</time>
      </trkpt>
      <trkpt lat="43.9755" lon="5.36984">
        <ele>754.95</ele>
        <time>2021-05-27T12:17:42Z</time>
      </trkpt>
      <trkpt lat="43.9757" lon="5.36979">
        <ele>755.15</ele>
        <time>2021-05-27T12:18:04Z</time>
      </trkpt>
      <trkpt lat="43.97588" lon="5.36976">
        <ele>755.4</ele>
        <time>2021-05-27T12:18:25Z</time>
      </trkpt>
      <trkpt lat="43.9761" lon="5.36966">
        <ele>754.08</ele>
        <time>2021-05-27T12:18:49Z</time>
      </trkpt>
      <trkpt lat="43.97632" lon="5.36955">
        <ele>752.53</ele>
        <time>2021-05-27T12:19:14Z</time>
      </trkpt>
      <trkpt lat="43.97647" lon="5.36943">
        <ele>753.74</ele>
        <time>2021-05-27T12:19:32Z</time>
      </trkpt>
      <trkpt lat="43.97661" lon="5.36932">
        <ele>754.22</ele>
        <time>2021-05-27T12:19:47Z</time>
      </trkpt>
      <trkpt lat="43.97667" lon="5.36929">
        <ele>754.5</ele>
        <time>2021-05-27T12:20:25Z</time>
      </trkpt>
      <trkpt lat="43.97666" lon="5.36932">
        <ele>754.58</ele>
        <time>2021-05-27T12:20:59Z</time>
      </trkpt>
      <trkpt lat="43.97675" lon="5.36928">
        <ele>754.68</ele>
        <time>2021-05-27T12:21:28Z</time>
      </trkpt>
      <trkpt lat="43.97684" lon="5.36928">
        <ele>755.05</ele>
        <time>2021-05-27T12:21:50Z</time>
      </trkpt>
      <trkpt lat="43.97701" lon="5.36928">
        <ele>753.85</ele>
        <time>2021-05-27T12:22:15Z</time>
      </trkpt>
      <trkpt lat="43.97703" lon="5.36927">
        <ele>753.46</ele>
        <time>2021-05-27T12:22:18Z</time>
      </trkpt>
      <trkpt lat="43.97726" lon="5.36923">
        <ele>751.14</ele>
        <time>2021-05-27T12:22:44Z</time>
      </trkpt>
      <trkpt lat="43.97741" lon="5.36916">
        <ele>749.04</ele>
        <time>2021-05-27T12:23:05Z</time>
      </trkpt>
      <trkpt lat="43.97745" lon="5.36916">
        <ele>748.08</ele>
        <time>2021-05-27T12:23:37Z</time>
      </trkpt>
      <trkpt lat="43.9776" lon="5.36903">
        <ele>744.94</ele>
        <time>2021-05-27T12:23:59Z</time>
      </trkpt>
      <trkpt lat="43.97768" lon="5.36899">
        <ele>741.94</ele>
        <time>2021-05-27T12:24:23Z</time>
      </trkpt>
      <trkpt lat="43.97778" lon="5.36897">
        <ele>742</ele>
        <time>2021-05-27T12:24:59Z</time>
      </trkpt>
      <trkpt lat="43.97795" lon="5.3689">
        <ele>739.19</ele>
        <time>2021-05-27T12:25:24Z</time>
      </trkpt>
      <trkpt lat="43.97818" lon="5.36887">
        <ele>738.85</ele>
        <time>2021-05-27T12:25:47Z</time>
      </trkpt>
      <trkpt lat="43.9782" lon="5.36887">
        <ele>739.11</ele>
        <time>2021-05-27T12:25:51Z</time>
      </trkpt>
      <trkpt lat="43.97842" lon="5.36877">
        <ele>740.67</ele>
        <time>2021-05-27T12:26:15Z</time>
      </trkpt>
      <trkpt lat="43.97865" lon="5.36868">
        <ele>741.65</ele>
        <time>2021-05-27T12:26:39Z</time>
      </trkpt>
      <trkpt lat="43.9789" lon="5.36863">
        <ele>742.22</ele>
        <time>2021-05-27T12:27:03Z</time>
      </trkpt>
      <trkpt lat="43.97902" lon="5.36843">
        <ele>745.27</ele>
        <time>2021-05-27T12:27:27Z</time>
      </trkpt>
      <trkpt lat="43.97911" lon="5.36823">
        <ele>748.38</ele>
        <time>2021-05-27T12:27:47Z</time>
      </trkpt>
      <trkpt lat="43.97914" lon="5.36804">
        <ele>751.39</ele>
        <time>2021-05-27T12:28:05Z</time>
      </trkpt>
      <trkpt lat="43.97914" lon="5.36783">
        <ele>754.39</ele>
        <time>2021-05-27T12:28:27Z</time>
      </trkpt>
      <trkpt lat="43.97912" lon="5.36763">
        <ele>757.4</ele>
        <time>2021-05-27T12:28:48Z</time>
      </trkpt>
      <trkpt lat="43.9791" lon="5.36756">
        <ele>758.74</ele>
        <time>2021-05-27T12:29:10Z</time>
      </trkpt>
      <trkpt lat="43.97909" lon="5.36753">
        <ele>759.04</ele>
        <time>2021-05-27T12:30:14Z</time>
      </trkpt>
      <trkpt lat="43.97909" lon="5.36754">
        <ele>759.62</ele>
        <time>2021-05-27T12:31:15Z</time>
      </trkpt>
      <trkpt lat="43.97904" lon="5.36744">
        <ele>760.1</ele>
        <time>2021-05-27T12:31:46Z</time>
      </trkpt>
      <trkpt lat="43.97896" lon="5.36729">
        <ele>762.22</ele>
        <time>2021-05-27T12:32:03Z</time>
      </trkpt>
      <trkpt lat="43.97894" lon="5.36726">
        <ele>763.56</ele>
        <time>2021-05-27T12:32:38Z</time>
      </trkpt>
      <trkpt lat="43.97899" lon="5.36715">
        <ele>763.72</ele>
        <time>2021-05-27T12:33:04Z</time>
      </trkpt>
      <trkpt lat="43.9789" lon="5.36708">
        <ele>762.5</ele>
        <time>2021-05-27T12:33:24Z</time>
      </trkpt>
      <trkpt lat="43.97885" lon="5.36693">
        <ele>759.43</ele>
        <time>2021-05-27T12:33:43Z</time>
      </trkpt>
      <trkpt lat="43.97898" lon="5.36673">
        <ele>757.73</ele>
        <time>2021-05-27T12:34:04Z</time>
      </trkpt>
      <trkpt lat="43.97912" lon="5.36663">
        <ele>755.59</ele>
        <time>2021-05-27T12:34:20Z</time>
      </trkpt>
      <trkpt lat="43.97929" lon="5.36639">
        <ele>754.47</ele>
        <time>2021-05-27T12:34:43Z</time>
      </trkpt>
      <trkpt lat="43.9794" lon="5.36621">
        <ele>752.25</ele>
        <time>2021-05-27T12:35:00Z</time>
      </trkpt>
      <trkpt lat="43.97952" lon="5.36601">
        <ele>750.74</ele>
        <time>2021-05-27T12:35:21Z</time>
      </trkpt>
      <trkpt lat="43.97964" lon="5.36576">
        <ele>749.23</ele>
        <time>2021-05-27T12:35:42Z</time>
      </trkpt>
      <trkpt lat="43.97969" lon="5.3654">
        <ele>749.18</ele>
        <time>2021-05-27T12:36:07Z</time>
      </trkpt>
      <trkpt lat="43.97969" lon="5.36538">
        <ele>749.25</ele>
        <time>2021-05-27T12:36:08Z</time>
      </trkpt>
      <trkpt lat="43.97963" lon="5.36521">
        <ele>749.63</ele>
        <time>2021-05-27T12:36:23Z</time>
      </trkpt>
      <trkpt lat="43.97953" lon="5.36508">
        <ele>748.55</ele>
        <time>2021-05-27T12:36:39Z</time>
      </trkpt>
      <trkpt lat="43.97942" lon="5.36494">
        <ele>746.61</ele>
        <time>2021-05-27T12:36:58Z</time>
      </trkpt>
      <trkpt lat="43.97937" lon="5.36477">
        <ele>744.68</ele>
        <time>2021-05-27T12:37:14Z</time>
      </trkpt>
      <trkpt lat="43.97937" lon="5.36473">
        <ele>744.37</ele>
        <time>2021-05-27T12:37:17Z</time>
      </trkpt>
      <trkpt lat="43.97932" lon="5.36456">
        <ele>743.69</ele>
        <time>2021-05-27T12:37:29Z</time>
      </trkpt>
      <trkpt lat="43.97928" lon="5.36438">
        <ele>743.25</ele>
        <time>2021-05-27T12:37:43Z</time>
      </trkpt>
      <trkpt lat="43.97921" lon="5.36419">
        <ele>741.99</ele>
        <time>2021-05-27T12:38:00Z</time>
      </trkpt>
      <trkpt lat="43.97916" lon="5.36402">
        <ele>740.62</ele>
        <time>2021-05-27T12:38:15Z</time>
      </trkpt>
      <trkpt lat="43.97908" lon="5.36393">
        <ele>738.14</ele>
        <time>2021-05-27T12:38:31Z</time>
      </trkpt>
      <trkpt lat="43.97895" lon="5.36379">
        <ele>734.96</ele>
        <time>2021-05-27T12:38:49Z</time>
      </trkpt>
      <trkpt lat="43.97891" lon="5.36376">
        <ele>734.12</ele>
        <time>2021-05-27T12:38:54Z</time>
      </trkpt>
      <trkpt lat="43.97878" lon="5.36372">
        <ele>732.69</ele>
        <time>2021-05-27T12:39:08Z</time>
      </trkpt>
      <trkpt lat="43.97861" lon="5.36368">
        <ele>731.03</ele>
        <time>2021-05-27T12:39:26Z</time>
      </trkpt>
      <trkpt lat="43.97849" lon="5.36349">
        <ele>728.56</ele>
        <time>2021-05-27T12:39:45Z</time>
      </trkpt>
      <trkpt lat="43.97844" lon="5.36344">
        <ele>727.82</ele>
        <time>2021-05-27T12:39:53Z</time>
      </trkpt>
      <trkpt lat="43.97836" lon="5.36333">
        <ele>726.3</ele>
        <time>2021-05-27T12:40:04Z</time>
      </trkpt>
      <trkpt lat="43.97821" lon="5.36313">
        <ele>723.99</ele>
        <time>2021-05-27T12:40:25Z</time>
      </trkpt>
      <trkpt lat="43.97816" lon="5.3631">
        <ele>723.03</ele>
        <time>2021-05-27T12:40:31Z</time>
      </trkpt>
      <trkpt lat="43.97809" lon="5.3631">
        <ele>722.22</ele>
        <time>2021-05-27T12:40:37Z</time>
      </trkpt>
      <trkpt lat="43.97791" lon="5.36305">
        <ele>719.46</ele>
        <time>2021-05-27T12:40:56Z</time>
      </trkpt>
      <trkpt lat="43.97776" lon="5.36298">
        <ele>717.35</ele>
        <time>2021-05-27T12:41:14Z</time>
      </trkpt>
      <trkpt lat="43.9776" lon="5.36304">
        <ele>714.63</ele>
        <time>2021-05-27T12:41:35Z</time>
      </trkpt>
      <trkpt lat="43.97756" lon="5.36313">
        <ele>713.81</ele>
        <time>2021-05-27T12:41:43Z</time>
      </trkpt>
      <trkpt lat="43.97747" lon="5.3634">
        <ele>711.54</ele>
        <time>2021-05-27T12:42:05Z</time>
      </trkpt>
      <trkpt lat="43.97737" lon="5.36347">
        <ele>710.12</ele>
        <time>2021-05-27T12:42:21Z</time>
      </trkpt>
      <trkpt lat="43.97736" lon="5.36339">
        <ele>709.61</ele>
        <time>2021-05-27T12:42:28Z</time>
      </trkpt>
      <trkpt lat="43.97733" lon="5.36316">
        <ele>708.33</ele>
        <time>2021-05-27T12:42:45Z</time>
      </trkpt>
      <trkpt lat="43.97727" lon="5.36294">
        <ele>706.37</ele>
        <time>2021-05-27T12:43:03Z</time>
      </trkpt>
      <trkpt lat="43.97719" lon="5.3627">
        <ele>703.82</ele>
        <time>2021-05-27T12:43:25Z</time>
      </trkpt>
      <trkpt lat="43.9771" lon="5.36255">
        <ele>702.17</ele>
        <time>2021-05-27T12:43:43Z</time>
      </trkpt>
      <trkpt lat="43.97695" lon="5.36251">
        <ele>700.2</ele>
        <time>2021-05-27T12:44:04Z</time>
      </trkpt>
      <trkpt lat="43.97681" lon="5.36249">
        <ele>698.28</ele>
        <time>2021-05-27T12:44:21Z</time>
      </trkpt>
      <trkpt lat="43.97663" lon="5.36245">
        <ele>696.03</ele>
        <time>2021-05-27T12:44:40Z</time>
      </trkpt>
      <trkpt lat="43.9765" lon="5.36241">
        <ele>693.8</ele>
        <time>2021-05-27T12:44:57Z</time>
      </trkpt>
      <trkpt lat="43.97641" lon="5.36232">
        <ele>692.45</ele>
        <time>2021-05-27T12:45:13Z</time>
      </trkpt>
      <trkpt lat="43.97625" lon="5.36234">
        <ele>689.37</ele>
        <time>2021-05-27T12:45:33Z</time>
      </trkpt>
      <trkpt lat="43.97606" lon="5.36234">
        <ele>687.16</ele>
        <time>2021-05-27T12:45:56Z</time>
      </trkpt>
      <trkpt lat="43.97596" lon="5.36226">
        <ele>684.75</ele>
        <time>2021-05-27T12:46:13Z</time>
      </trkpt>
      <trkpt lat="43.97586" lon="5.36211">
        <ele>682.09</ele>
        <time>2021-05-27T12:46:35Z</time>
      </trkpt>
      <trkpt lat="43.9757" lon="5.36201">
        <ele>679.44</ele>
        <time>2021-05-27T12:46:58Z</time>
      </trkpt>
      <trkpt lat="43.97558" lon="5.36194">
        <ele>676.4</ele>
        <time>2021-05-27T12:47:16Z</time>
      </trkpt>
      <trkpt lat="43.97554" lon="5.36189">
        <ele>675.01</ele>
        <time>2021-05-27T12:47:25Z</time>
      </trkpt>
      <trkpt lat="43.97547" lon="5.36175">
        <ele>672.62</ele>
        <time>2021-05-27T12:47:41Z</time>
      </trkpt>
      <trkpt lat="43.97534" lon="5.36167">
        <ele>669.81</ele>
        <time>2021-05-27T12:48:01Z</time>
      </trkpt>
      <trkpt lat="43.97525" lon="5.36156">
        <ele>666.78</ele>
        <time>2021-05-27T12:48:21Z</time>
      </trkpt>
      <trkpt lat="43.97517" lon="5.36143">
        <ele>663.7</ele>
        <time>2021-05-27T12:48:42Z</time>
      </trkpt>
      <trkpt lat="43.97511" lon="5.36124">
        <ele>661.49</ele>
        <time>2021-05-27T12:49:02Z</time>
      </trkpt>
      <trkpt lat="43.97503" lon="5.36106">
        <ele>658.47</ele>
        <time>2021-05-27T12:49:21Z</time>
      </trkpt>
      <trkpt lat="43.97496" lon="5.3609">
        <ele>655.46</ele>
        <time>2021-05-27T12:49:41Z</time>
      </trkpt>
      <trkpt lat="43.97492" lon="5.36076">
        <ele>652.44</ele>
        <time>2021-05-27T12:49:58Z</time>
      </trkpt>
      <trkpt lat="43.97483" lon="5.36058">
        <ele>649.56</ele>
        <time>2021-05-27T12:50:18Z</time>
      </trkpt>
      <trkpt lat="43.97477" lon="5.36044">
        <ele>646.87</ele>
        <time>2021-05-27T12:50:35Z</time>
      </trkpt>
      <trkpt lat="43.97474" lon="5.36023">
        <ele>644.12</ele>
        <time>2021-05-27T12:50:57Z</time>
      </trkpt>
      <trkpt lat="43.97469" lon="5.36007">
        <ele>640.98</ele>
        <time>2021-05-27T12:51:15Z</time>
      </trkpt>
      <trkpt lat="43.97464" lon="5.35991">
        <ele>638.51</ele>
        <time>2021-05-27T12:51:32Z</time>
      </trkpt>
      <trkpt lat="43.97455" lon="5.3598">
        <ele>635.94</ele>
        <time>2021-05-27T12:51:53Z</time>
      </trkpt>
      <trkpt lat="43.97442" lon="5.35962">
        <ele>632.8</ele>
        <time>2021-05-27T12:52:17Z</time>
      </trkpt>
      <trkpt lat="43.97433" lon="5.35949">
        <ele>631.25</ele>
        <time>2021-05-27T12:52:33Z</time>
      </trkpt>
      <trkpt lat="43.97419" lon="5.3594">
        <ele>628.23</ele>
        <time>2021-05-27T12:52:56Z</time>
      </trkpt>
      <trkpt lat="43.9741" lon="5.35935">
        <ele>626.68</ele>
        <time>2021-05-27T12:53:07Z</time>
      </trkpt>
      <trkpt lat="43.97398" lon="5.35926">
        <ele>624.41</ele>
        <time>2021-05-27T12:53:24Z</time>
      </trkpt>
      <trkpt lat="43.97393" lon="5.35913">
        <ele>622.43</ele>
        <time>2021-05-27T12:53:38Z</time>
      </trkpt>
      <trkpt lat="43.97389" lon="5.35899">
        <ele>620.64</ele>
        <time>2021-05-27T12:53:54Z</time>
      </trkpt>
      <trkpt lat="43.97381" lon="5.35892">
        <ele>618.49</ele>
        <time>2021-05-27T12:54:09Z</time>
      </trkpt>
      <trkpt lat="43.97368" lon="5.35884">
        <ele>616.66</ele>
        <time>2021-05-27T12:54:29Z</time>
      </trkpt>
      <trkpt lat="43.97362" lon="5.35871">
        <ele>614.77</ele>
        <time>2021-05-27T12:54:43Z</time>
      </trkpt>
      <trkpt lat="43.97352" lon="5.35856">
        <ele>612.06</ele>
        <time>2021-05-27T12:55:04Z</time>
      </trkpt>
      <trkpt lat="43.97344" lon="5.35847">
        <ele>609.51</ele>
        <time>2021-05-27T12:55:20Z</time>
      </trkpt>
      <trkpt lat="43.97331" lon="5.35831">
        <ele>607.4</ele>
        <time>2021-05-27T12:55:40Z</time>
      </trkpt>
      <trkpt lat="43.97318" lon="5.35826">
        <ele>605.1</ele>
        <time>2021-05-27T12:55:58Z</time>
      </trkpt>
      <trkpt lat="43.97309" lon="5.35818">
        <ele>603.3</ele>
        <time>2021-05-27T12:56:14Z</time>
      </trkpt>
      <trkpt lat="43.97308" lon="5.35815">
        <ele>602.27</ele>
        <time>2021-05-27T12:57:27Z</time>
      </trkpt>
      <trkpt lat="43.97308" lon="5.35816">
        <ele>602</ele>
        <time>2021-05-27T12:58:40Z</time>
      </trkpt>
      <trkpt lat="43.97309" lon="5.35815">
        <ele>601.59</ele>
        <time>2021-05-27T12:59:50Z</time>
      </trkpt>
      <trkpt lat="43.97308" lon="5.35816">
        <ele>601.77</ele>
        <time>2021-05-27T13:00:44Z</time>
      </trkpt>
      <trkpt lat="43.97307" lon="5.35815">
        <ele>601.32</ele>
        <time>2021-05-27T13:02:13Z</time>
      </trkpt>
      <trkpt lat="43.97308" lon="5.35815">
        <ele>601.91</ele>
        <time>2021-05-27T13:03:29Z</time>
      </trkpt>
      <trkpt lat="43.97297" lon="5.3581">
        <ele>601.92</ele>
        <time>2021-05-27T13:03:58Z</time>
      </trkpt>
      <trkpt lat="43.97288" lon="5.35803">
        <ele>600.06</ele>
        <time>2021-05-27T13:04:15Z</time>
      </trkpt>
      <trkpt lat="43.97276" lon="5.35792">
        <ele>598.19</ele>
        <time>2021-05-27T13:04:32Z</time>
      </trkpt>
      <trkpt lat="43.97264" lon="5.35785">
        <ele>595.97</ele>
        <time>2021-05-27T13:04:48Z</time>
      </trkpt>
      <trkpt lat="43.97253" lon="5.35773">
        <ele>593.62</ele>
        <time>2021-05-27T13:05:08Z</time>
      </trkpt>
      <trkpt lat="43.97251" lon="5.35761">
        <ele>592.23</ele>
        <time>2021-05-27T13:05:24Z</time>
      </trkpt>
      <trkpt lat="43.97253" lon="5.35738">
        <ele>591.03</ele>
        <time>2021-05-27T13:05:45Z</time>
      </trkpt>
      <trkpt lat="43.97255" lon="5.35711">
        <ele>588.99</ele>
        <time>2021-05-27T13:06:08Z</time>
      </trkpt>
      <trkpt lat="43.97256" lon="5.35688">
        <ele>587.29</ele>
        <time>2021-05-27T13:06:27Z</time>
      </trkpt>
      <trkpt lat="43.97265" lon="5.35668">
        <ele>586.05</ele>
        <time>2021-05-27T13:06:48Z</time>
      </trkpt>
      <trkpt lat="43.97276" lon="5.35653">
        <ele>584.29</ele>
        <time>2021-05-27T13:07:08Z</time>
      </trkpt>
      <trkpt lat="43.97279" lon="5.35648">
        <ele>584.12</ele>
        <time>2021-05-27T13:07:13Z</time>
      </trkpt>
      <trkpt lat="43.97277" lon="5.35617">
        <ele>583.09</ele>
        <time>2021-05-27T13:07:34Z</time>
      </trkpt>
      <trkpt lat="43.9727" lon="5.35594">
        <ele>581.95</ele>
        <time>2021-05-27T13:07:53Z</time>
      </trkpt>
      <trkpt lat="43.97262" lon="5.35573">
        <ele>580.33</ele>
        <time>2021-05-27T13:08:12Z</time>
      </trkpt>
      <trkpt lat="43.97252" lon="5.35552">
        <ele>578.26</ele>
        <time>2021-05-27T13:08:31Z</time>
      </trkpt>
      <trkpt lat="43.97242" lon="5.35526">
        <ele>576.87</ele>
        <time>2021-05-27T13:08:53Z</time>
      </trkpt>
      <trkpt lat="43.97238" lon="5.35503">
        <ele>575.24</ele>
        <time>2021-05-27T13:09:11Z</time>
      </trkpt>
      <trkpt lat="43.9723" lon="5.3548">
        <ele>573.16</ele>
        <time>2021-05-27T13:09:30Z</time>
      </trkpt>
      <trkpt lat="43.97228" lon="5.35479">
        <ele>572.88</ele>
        <time>2021-05-27T13:09:32Z</time>
      </trkpt>
      <trkpt lat="43.97226" lon="5.35479">
        <ele>572.54</ele>
        <time>2021-05-27T13:09:34Z</time>
      </trkpt>
      <trkpt lat="43.9721" lon="5.35485">
        <ele>570.88</ele>
        <time>2021-05-27T13:09:54Z</time>
      </trkpt>
      <trkpt lat="43.97206" lon="5.35485">
        <ele>569.32</ele>
        <time>2021-05-27T13:10:14Z</time>
      </trkpt>
      <trkpt lat="43.972" lon="5.35481">
        <ele>569.09</ele>
        <time>2021-05-27T13:11:01Z</time>
      </trkpt>
      <trkpt lat="43.97199" lon="5.35475">
        <ele>569.06</ele>
        <time>2021-05-27T13:11:07Z</time>
      </trkpt>
      <trkpt lat="43.97195" lon="5.35448">
        <ele>567.13</ele>
        <time>2021-05-27T13:11:29Z</time>
      </trkpt>
      <trkpt lat="43.97186" lon="5.35435">
        <ele>564.61</ele>
        <time>2021-05-27T13:11:45Z</time>
      </trkpt>
      <trkpt lat="43.97175" lon="5.35419">
        <ele>562.19</ele>
        <time>2021-05-27T13:12:05Z</time>
      </trkpt>
      <trkpt lat="43.97168" lon="5.35411">
        <ele>560.45</ele>
        <time>2021-05-27T13:12:14Z</time>
      </trkpt>
      <trkpt lat="43.97157" lon="5.35399">
        <ele>557.23</ele>
        <time>2021-05-27T13:12:30Z</time>
      </trkpt>
      <trkpt lat="43.97156" lon="5.35398">
        <ele>557.14</ele>
        <time>2021-05-27T13:12:31Z</time>
      </trkpt>
      <trkpt lat="43.9714" lon="5.35383">
        <ele>554.04</ele>
        <time>2021-05-27T13:12:52Z</time>
      </trkpt>
      <trkpt lat="43.97133" lon="5.35368">
        <ele>552.8</ele>
        <time>2021-05-27T13:13:05Z</time>
      </trkpt>
      <trkpt lat="43.97134" lon="5.35352">
        <ele>552.03</ele>
        <time>2021-05-27T13:13:16Z</time>
      </trkpt>
      <trkpt lat="43.97131" lon="5.35335">
        <ele>550.61</ele>
        <time>2021-05-27T13:13:27Z</time>
      </trkpt>
      <trkpt lat="43.97122" lon="5.35318">
        <ele>550.13</ele>
        <time>2021-05-27T13:13:44Z</time>
      </trkpt>
      <trkpt lat="43.97114" lon="5.35313">
        <ele>549.72</ele>
        <time>2021-05-27T13:13:53Z</time>
      </trkpt>
      <trkpt lat="43.97104" lon="5.35299">
        <ele>548.57</ele>
        <time>2021-05-27T13:14:04Z</time>
      </trkpt>
      <trkpt lat="43.971" lon="5.3528">
        <ele>547.73</ele>
        <time>2021-05-27T13:14:29Z</time>
      </trkpt>
      <trkpt lat="43.971" lon="5.35273">
        <ele>547.8</ele>
        <time>2021-05-27T13:14:55Z</time>
      </trkpt>
      <trkpt lat="43.97104" lon="5.35269">
        <ele>547.73</ele>
        <time>2021-05-27T13:15:12Z</time>
      </trkpt>
      <trkpt lat="43.97105" lon="5.35265">
        <ele>548.13</ele>
        <time>2021-05-27T13:15:37Z</time>
      </trkpt>
      <trkpt lat="43.97101" lon="5.35264">
        <ele>548.06</ele>
        <time>2021-05-27T13:16:00Z</time>
      </trkpt>
      <trkpt lat="43.97098" lon="5.35263">
        <ele>548.42</ele>
        <time>2021-05-27T13:16:41Z</time>
      </trkpt>
      <trkpt lat="43.97099" lon="5.35261">
        <ele>548.36</ele>
        <time>2021-05-27T13:17:39Z</time>
      </trkpt>
      <trkpt lat="43.97102" lon="5.3524">
        <ele>548.54</ele>
        <time>2021-05-27T13:17:57Z</time>
      </trkpt>
      <trkpt lat="43.97102" lon="5.35238">
        <ele>548.69</ele>
        <time>2021-05-27T13:17:59Z</time>
      </trkpt>
      <trkpt lat="43.97111" lon="5.35218">
        <ele>549.95</ele>
        <time>2021-05-27T13:18:16Z</time>
      </trkpt>
      <trkpt lat="43.97112" lon="5.35217">
        <ele>550.01</ele>
        <time>2021-05-27T13:18:17Z</time>
      </trkpt>
      <trkpt lat="43.97121" lon="5.35196">
        <ele>551.58</ele>
        <time>2021-05-27T13:18:34Z</time>
      </trkpt>
      <trkpt lat="43.97124" lon="5.35185">
        <ele>551.75</ele>
        <time>2021-05-27T13:18:41Z</time>
      </trkpt>
      <trkpt lat="43.97128" lon="5.35178">
        <ele>552.18</ele>
        <time>2021-05-27T13:18:47Z</time>
      </trkpt>
      <trkpt lat="43.97129" lon="5.3517">
        <ele>552.86</ele>
        <time>2021-05-27T13:18:52Z</time>
      </trkpt>
      <trkpt lat="43.9713" lon="5.35162">
        <ele>553.03</ele>
        <time>2021-05-27T13:18:57Z</time>
      </trkpt>
      <trkpt lat="43.97131" lon="5.3515">
        <ele>553.32</ele>
        <time>2021-05-27T13:19:05Z</time>
      </trkpt>
      <trkpt lat="43.97132" lon="5.35142">
        <ele>554.16</ele>
        <time>2021-05-27T13:19:11Z</time>
      </trkpt>
      <trkpt lat="43.97133" lon="5.35137">
        <ele>555.13</ele>
        <time>2021-05-27T13:19:26Z</time>
      </trkpt>
      <trkpt lat="43.9714" lon="5.35127">
        <ele>556.93</ele>
        <time>2021-05-27T13:19:50Z</time>
      </trkpt>
      <trkpt lat="43.97153" lon="5.35115">
        <ele>560.01</ele>
        <time>2021-05-27T13:20:11Z</time>
      </trkpt>
      <trkpt lat="43.97173" lon="5.35095">
        <ele>563.2</ele>
        <time>2021-05-27T13:20:41Z</time>
      </trkpt>
      <trkpt lat="43.9719" lon="5.35086">
        <ele>565.8</ele>
        <time>2021-05-27T13:21:03Z</time>
      </trkpt>
      <trkpt lat="43.97211" lon="5.35084">
        <ele>567.64</ele>
        <time>2021-05-27T13:21:28Z</time>
      </trkpt>
      <trkpt lat="43.97222" lon="5.35083">
        <ele>569.68</ele>
        <time>2021-05-27T13:21:50Z</time>
      </trkpt>
      <trkpt lat="43.97229" lon="5.35069">
        <ele>570.93</ele>
        <time>2021-05-27T13:22:09Z</time>
      </trkpt>
      <trkpt lat="43.97229" lon="5.35062">
        <ele>571.08</ele>
        <time>2021-05-27T13:22:26Z</time>
      </trkpt>
      <trkpt lat="43.97232" lon="5.35052">
        <ele>570.98</ele>
        <time>2021-05-27T13:22:45Z</time>
      </trkpt>
      <trkpt lat="43.97231" lon="5.35042">
        <ele>570.97</ele>
        <time>2021-05-27T13:22:53Z</time>
      </trkpt>
      <trkpt lat="43.97229" lon="5.35031">
        <ele>570.77</ele>
        <time>2021-05-27T13:23:00Z</time>
      </trkpt>
      <trkpt lat="43.97222" lon="5.35015">
        <ele>569.19</ele>
        <time>2021-05-27T13:23:19Z</time>
      </trkpt>
      <trkpt lat="43.97223" lon="5.34999">
        <ele>568.74</ele>
        <time>2021-05-27T13:23:33Z</time>
      </trkpt>
      <trkpt lat="43.9723" lon="5.34978">
        <ele>568.27</ele>
        <time>2021-05-27T13:23:50Z</time>
      </trkpt>
      <trkpt lat="43.97235" lon="5.34957">
        <ele>568.16</ele>
        <time>2021-05-27T13:24:06Z</time>
      </trkpt>
      <trkpt lat="43.9723" lon="5.34938">
        <ele>567.93</ele>
        <time>2021-05-27T13:24:19Z</time>
      </trkpt>
      <trkpt lat="43.97229" lon="5.34936">
        <ele>567.67</ele>
        <time>2021-05-27T13:24:21Z</time>
      </trkpt>
      <trkpt lat="43.97219" lon="5.34918">
        <ele>566.16</ele>
        <time>2021-05-27T13:24:38Z</time>
      </trkpt>
      <trkpt lat="43.97214" lon="5.34893">
        <ele>564.86</ele>
        <time>2021-05-27T13:24:57Z</time>
      </trkpt>
      <trkpt lat="43.97213" lon="5.34887">
        <ele>564.67</ele>
        <time>2021-05-27T13:25:01Z</time>
      </trkpt>
      <trkpt lat="43.97208" lon="5.34876">
        <ele>564.28</ele>
        <time>2021-05-27T13:25:10Z</time>
      </trkpt>
      <trkpt lat="43.97206" lon="5.34872">
        <ele>564.04</ele>
        <time>2021-05-27T13:25:13Z</time>
      </trkpt>
      <trkpt lat="43.97195" lon="5.34848">
        <ele>562.12</ele>
        <time>2021-05-27T13:25:33Z</time>
      </trkpt>
      <trkpt lat="43.97184" lon="5.34825">
        <ele>561.43</ele>
        <time>2021-05-27T13:25:52Z</time>
      </trkpt>
      <trkpt lat="43.97171" lon="5.34796">
        <ele>560.02</ele>
        <time>2021-05-27T13:26:13Z</time>
      </trkpt>
      <trkpt lat="43.9716" lon="5.34771">
        <ele>558.68</ele>
        <time>2021-05-27T13:26:32Z</time>
      </trkpt>
      <trkpt lat="43.97147" lon="5.34749">
        <ele>558</ele>
        <time>2021-05-27T13:26:52Z</time>
      </trkpt>
      <trkpt lat="43.97144" lon="5.3474">
        <ele>557.47</ele>
        <time>2021-05-27T13:26:59Z</time>
      </trkpt>
      <trkpt lat="43.97135" lon="5.34707">
        <ele>555.45</ele>
        <time>2021-05-27T13:27:23Z</time>
      </trkpt>
      <trkpt lat="43.9713" lon="5.3469">
        <ele>554.17</ele>
        <time>2021-05-27T13:27:41Z</time>
      </trkpt>
      <trkpt lat="43.97128" lon="5.34686">
        <ele>552.66</ele>
        <time>2021-05-27T13:28:05Z</time>
      </trkpt>
      <trkpt lat="43.97126" lon="5.34684">
        <ele>552.62</ele>
        <time>2021-05-27T13:28:27Z</time>
      </trkpt>
      <trkpt lat="43.97121" lon="5.34674">
        <ele>552.17</ele>
        <time>2021-05-27T13:29:05Z</time>
      </trkpt>
      <trkpt lat="43.97111" lon="5.34658">
        <ele>550.94</ele>
        <time>2021-05-27T13:29:23Z</time>
      </trkpt>
      <trkpt lat="43.97106" lon="5.34649">
        <ele>549.57</ele>
        <time>2021-05-27T13:29:41Z</time>
      </trkpt>
      <trkpt lat="43.97096" lon="5.34634">
        <ele>548.42</ele>
        <time>2021-05-27T13:29:58Z</time>
      </trkpt>
      <trkpt lat="43.97086" lon="5.34616">
        <ele>547</ele>
        <time>2021-05-27T13:30:16Z</time>
      </trkpt>
      <trkpt lat="43.97075" lon="5.34596">
        <ele>545.03</ele>
        <time>2021-05-27T13:30:36Z</time>
      </trkpt>
      <trkpt lat="43.97067" lon="5.34579">
        <ele>543.01</ele>
        <time>2021-05-27T13:30:55Z</time>
      </trkpt>
      <trkpt lat="43.97058" lon="5.34561">
        <ele>541.09</ele>
        <time>2021-05-27T13:31:16Z</time>
      </trkpt>
      <trkpt lat="43.97062" lon="5.34551">
        <ele>539.2</ele>
        <time>2021-05-27T13:31:32Z</time>
      </trkpt>
      <trkpt lat="43.9706" lon="5.34551">
        <ele>538.21</ele>
        <time>2021-05-27T13:31:48Z</time>
      </trkpt>
      <trkpt lat="43.97068" lon="5.34559">
        <ele>537.78</ele>
        <time>2021-05-27T13:32:07Z</time>
      </trkpt>
      <trkpt lat="43.97069" lon="5.3456">
        <ele>537.74</ele>
        <time>2021-05-27T13:32:08Z</time>
      </trkpt>
      <trkpt lat="43.9708" lon="5.34568">
        <ele>537.35</ele>
        <time>2021-05-27T13:32:21Z</time>
      </trkpt>
      <trkpt lat="43.97097" lon="5.34581">
        <ele>536.39</ele>
        <time>2021-05-27T13:32:40Z</time>
      </trkpt>
      <trkpt lat="43.97102" lon="5.34577">
        <ele>536.17</ele>
        <time>2021-05-27T13:32:54Z</time>
      </trkpt>
      <trkpt lat="43.97096" lon="5.34558">
        <ele>533.9</ele>
        <time>2021-05-27T13:33:13Z</time>
      </trkpt>
      <trkpt lat="43.97087" lon="5.34533">
        <ele>531.14</ele>
        <time>2021-05-27T13:33:36Z</time>
      </trkpt>
      <trkpt lat="43.97079" lon="5.34515">
        <ele>528.05</ele>
        <time>2021-05-27T13:33:53Z</time>
      </trkpt>
      <trkpt lat="43.97072" lon="5.34496">
        <ele>526.57</ele>
        <time>2021-05-27T13:34:11Z</time>
      </trkpt>
      <trkpt lat="43.97063" lon="5.34471">
        <ele>524.17</ele>
        <time>2021-05-27T13:34:32Z</time>
      </trkpt>
      <trkpt lat="43.97056" lon="5.34451">
        <ele>522.64</ele>
        <time>2021-05-27T13:34:49Z</time>
      </trkpt>
      <trkpt lat="43.97048" lon="5.34427">
        <ele>521.1</ele>
        <time>2021-05-27T13:35:10Z</time>
      </trkpt>
      <trkpt lat="43.97041" lon="5.3441">
        <ele>519.68</ele>
        <time>2021-05-27T13:35:26Z</time>
      </trkpt>
      <trkpt lat="43.97034" lon="5.3439">
        <ele>518.09</ele>
        <time>2021-05-27T13:35:42Z</time>
      </trkpt>
      <trkpt lat="43.97023" lon="5.34369">
        <ele>515.77</ele>
        <time>2021-05-27T13:36:00Z</time>
      </trkpt>
      <trkpt lat="43.97008" lon="5.34349">
        <ele>513.99</ele>
        <time>2021-05-27T13:36:19Z</time>
      </trkpt>
      <trkpt lat="43.96993" lon="5.34331">
        <ele>512.19</ele>
        <time>2021-05-27T13:36:39Z</time>
      </trkpt>
      <trkpt lat="43.96982" lon="5.34319">
        <ele>510.62</ele>
        <time>2021-05-27T13:36:56Z</time>
      </trkpt>
      <trkpt lat="43.9697" lon="5.34305">
        <ele>508.92</ele>
        <time>2021-05-27T13:37:13Z</time>
      </trkpt>
      <trkpt lat="43.96957" lon="5.34292">
        <ele>507.72</ele>
        <time>2021-05-27T13:37:30Z</time>
      </trkpt>
      <trkpt lat="43.9695" lon="5.34285">
        <ele>506.7</ele>
        <time>2021-05-27T13:37:39Z</time>
      </trkpt>
      <trkpt lat="43.96944" lon="5.34281">
        <ele>505.63</ele>
        <time>2021-05-27T13:37:46Z</time>
      </trkpt>
      <trkpt lat="43.96927" lon="5.3427">
        <ele>504.11</ele>
        <time>2021-05-27T13:38:03Z</time>
      </trkpt>
      <trkpt lat="43.9691" lon="5.34261">
        <ele>502.82</ele>
        <time>2021-05-27T13:38:21Z</time>
      </trkpt>
      <trkpt lat="43.96893" lon="5.34259">
        <ele>502.03</ele>
        <time>2021-05-27T13:38:39Z</time>
      </trkpt>
      <trkpt lat="43.96878" lon="5.34264">
        <ele>500.58</ele>
        <time>2021-05-27T13:38:55Z</time>
      </trkpt>
      <trkpt lat="43.96871" lon="5.34267">
        <ele>499.91</ele>
        <time>2021-05-27T13:39:02Z</time>
      </trkpt>
      <trkpt lat="43.96862" lon="5.34287">
        <ele>499.23</ele>
        <time>2021-05-27T13:39:19Z</time>
      </trkpt>
      <trkpt lat="43.96865" lon="5.34295">
        <ele>498.8</ele>
        <time>2021-05-27T13:39:26Z</time>
      </trkpt>
      <trkpt lat="43.96873" lon="5.34323">
        <ele>497.5</ele>
        <time>2021-05-27T13:39:44Z</time>
      </trkpt>
      <trkpt lat="43.96881" lon="5.34348">
        <ele>496.52</ele>
        <time>2021-05-27T13:40:02Z</time>
      </trkpt>
      <trkpt lat="43.96886" lon="5.34376">
        <ele>495.13</ele>
        <time>2021-05-27T13:40:24Z</time>
      </trkpt>
      <trkpt lat="43.96892" lon="5.344">
        <ele>493.84</ele>
        <time>2021-05-27T13:40:42Z</time>
      </trkpt>
      <trkpt lat="43.96894" lon="5.34414">
        <ele>493.17</ele>
        <time>2021-05-27T13:40:53Z</time>
      </trkpt>
      <trkpt lat="43.96895" lon="5.34444">
        <ele>492.06</ele>
        <time>2021-05-27T13:41:14Z</time>
      </trkpt>
      <trkpt lat="43.96899" lon="5.34471">
        <ele>491.49</ele>
        <time>2021-05-27T13:41:34Z</time>
      </trkpt>
      <trkpt lat="43.96903" lon="5.34497">
        <ele>489.86</ele>
        <time>2021-05-27T13:41:53Z</time>
      </trkpt>
      <trkpt lat="43.96888" lon="5.34505">
        <ele>488.39</ele>
        <time>2021-05-27T13:42:19Z</time>
      </trkpt>
      <trkpt lat="43.96875" lon="5.34491">
        <ele>488.58</ele>
        <time>2021-05-27T13:42:33Z</time>
      </trkpt>
      <trkpt lat="43.96872" lon="5.34486">
        <ele>488.4</ele>
        <time>2021-05-27T13:42:36Z</time>
      </trkpt>
      <trkpt lat="43.9687" lon="5.3448">
        <ele>488.2</ele>
        <time>2021-05-27T13:42:40Z</time>
      </trkpt>
      <trkpt lat="43.96857" lon="5.34446">
        <ele>487.49</ele>
        <time>2021-05-27T13:43:05Z</time>
      </trkpt>
      <trkpt lat="43.96848" lon="5.34419">
        <ele>487.28</ele>
        <time>2021-05-27T13:43:26Z</time>
      </trkpt>
      <trkpt lat="43.96843" lon="5.34413">
        <ele>487.49</ele>
        <time>2021-05-27T13:43:32Z</time>
      </trkpt>
      <trkpt lat="43.96832" lon="5.34397">
        <ele>487.37</ele>
        <time>2021-05-27T13:43:45Z</time>
      </trkpt>
      <trkpt lat="43.96821" lon="5.34378">
        <ele>487.19</ele>
        <time>2021-05-27T13:44:00Z</time>
      </trkpt>
      <trkpt lat="43.96817" lon="5.34375">
        <ele>487.19</ele>
        <time>2021-05-27T13:44:04Z</time>
      </trkpt>
      <trkpt lat="43.96801" lon="5.34353">
        <ele>487.13</ele>
        <time>2021-05-27T13:44:23Z</time>
      </trkpt>
      <trkpt lat="43.968" lon="5.34352">
        <ele>487.13</ele>
        <time>2021-05-27T13:44:24Z</time>
      </trkpt>
      <trkpt lat="43.96784" lon="5.34323">
        <ele>486.61</ele>
        <time>2021-05-27T13:44:46Z</time>
      </trkpt>
      <trkpt lat="43.96782" lon="5.3432">
        <ele>486.61</ele>
        <time>2021-05-27T13:44:48Z</time>
      </trkpt>
      <trkpt lat="43.96765" lon="5.34292">
        <ele>487.08</ele>
        <time>2021-05-27T13:45:12Z</time>
      </trkpt>
      <trkpt lat="43.96765" lon="5.3429">
        <ele>487.16</ele>
        <time>2021-05-27T13:45:13Z</time>
      </trkpt>
      <trkpt lat="43.96757" lon="5.34258">
        <ele>487.38</ele>
        <time>2021-05-27T13:45:32Z</time>
      </trkpt>
      <trkpt lat="43.96757" lon="5.34251">
        <ele>487.46</ele>
        <time>2021-05-27T13:45:36Z</time>
      </trkpt>
      <trkpt lat="43.96755" lon="5.34221">
        <ele>487.82</ele>
        <time>2021-05-27T13:45:53Z</time>
      </trkpt>
      <trkpt lat="43.96754" lon="5.342">
        <ele>488.18</ele>
        <time>2021-05-27T13:46:07Z</time>
      </trkpt>
      <trkpt lat="43.96753" lon="5.34199">
        <ele>488.2</ele>
        <time>2021-05-27T13:46:08Z</time>
      </trkpt>
      <trkpt lat="43.96754" lon="5.34176">
        <ele>488.9</ele>
        <time>2021-05-27T13:46:23Z</time>
      </trkpt>
      <trkpt lat="43.96748" lon="5.34144">
        <ele>490.57</ele>
        <time>2021-05-27T13:46:46Z</time>
      </trkpt>
      <trkpt lat="43.96736" lon="5.3412">
        <ele>491.22</ele>
        <time>2021-05-27T13:47:04Z</time>
      </trkpt>
      <trkpt lat="43.96735" lon="5.34117">
        <ele>491.23</ele>
        <time>2021-05-27T13:47:06Z</time>
      </trkpt>
      <trkpt lat="43.96722" lon="5.34093">
        <ele>491.27</ele>
        <time>2021-05-27T13:47:24Z</time>
      </trkpt>
      <trkpt lat="43.96711" lon="5.34074">
        <ele>490.94</ele>
        <time>2021-05-27T13:47:39Z</time>
      </trkpt>
      <trkpt lat="43.96699" lon="5.34051">
        <ele>489.1</ele>
        <time>2021-05-27T13:47:57Z</time>
      </trkpt>
      <trkpt lat="43.96689" lon="5.34032">
        <ele>487.66</ele>
        <time>2021-05-27T13:48:14Z</time>
      </trkpt>
      <trkpt lat="43.96688" lon="5.34029">
        <ele>487.63</ele>
        <time>2021-05-27T13:48:16Z</time>
      </trkpt>
      <trkpt lat="43.96676" lon="5.34009">
        <ele>486.95</ele>
        <time>2021-05-27T13:48:32Z</time>
      </trkpt>
      <trkpt lat="43.96669" lon="5.33997">
        <ele>486.32</ele>
        <time>2021-05-27T13:48:41Z</time>
      </trkpt>
      <trkpt lat="43.96666" lon="5.33992">
        <ele>486.21</ele>
        <time>2021-05-27T13:48:45Z</time>
      </trkpt>
      <trkpt lat="43.96656" lon="5.33972">
        <ele>485.1</ele>
        <time>2021-05-27T13:49:03Z</time>
      </trkpt>
      <trkpt lat="43.96651" lon="5.33958">
        <ele>484.11</ele>
        <time>2021-05-27T13:49:21Z</time>
      </trkpt>
      <trkpt lat="43.96645" lon="5.3395">
        <ele>483.56</ele>
        <time>2021-05-27T13:49:29Z</time>
      </trkpt>
      <trkpt lat="43.96635" lon="5.33933">
        <ele>481.36</ele>
        <time>2021-05-27T13:49:46Z</time>
      </trkpt>
      <trkpt lat="43.96626" lon="5.33915">
        <ele>479.18</ele>
        <time>2021-05-27T13:50:05Z</time>
      </trkpt>
      <trkpt lat="43.96615" lon="5.33891">
        <ele>476.72</ele>
        <time>2021-05-27T13:50:25Z</time>
      </trkpt>
      <trkpt lat="43.96598" lon="5.33864">
        <ele>475.42</ele>
        <time>2021-05-27T13:50:50Z</time>
      </trkpt>
      <trkpt lat="43.96581" lon="5.33838">
        <ele>473.71</ele>
        <time>2021-05-27T13:51:13Z</time>
      </trkpt>
      <trkpt lat="43.96569" lon="5.33823">
        <ele>473.06</ele>
        <time>2021-05-27T13:51:29Z</time>
      </trkpt>
      <trkpt lat="43.96559" lon="5.33811">
        <ele>471.8</ele>
        <time>2021-05-27T13:51:45Z</time>
      </trkpt>
      <trkpt lat="43.96546" lon="5.33796">
        <ele>469.81</ele>
        <time>2021-05-27T13:52:06Z</time>
      </trkpt>
      <trkpt lat="43.96534" lon="5.33782">
        <ele>468.02</ele>
        <time>2021-05-27T13:52:24Z</time>
      </trkpt>
      <trkpt lat="43.96524" lon="5.33763">
        <ele>465.95</ele>
        <time>2021-05-27T13:52:43Z</time>
      </trkpt>
      <trkpt lat="43.96514" lon="5.33749">
        <ele>463.22</ele>
        <time>2021-05-27T13:53:00Z</time>
      </trkpt>
      <trkpt lat="43.96502" lon="5.33733">
        <ele>460.29</ele>
        <time>2021-05-27T13:53:18Z</time>
      </trkpt>
      <trkpt lat="43.96493" lon="5.33723">
        <ele>458.6</ele>
        <time>2021-05-27T13:53:35Z</time>
      </trkpt>
      <trkpt lat="43.96484" lon="5.33711">
        <ele>457.93</ele>
        <time>2021-05-27T13:53:55Z</time>
      </trkpt>
      <trkpt lat="43.96479" lon="5.33702">
        <ele>456.56</ele>
        <time>2021-05-27T13:54:17Z</time>
      </trkpt>
      <trkpt lat="43.96474" lon="5.33695">
        <ele>456.27</ele>
        <time>2021-05-27T13:54:49Z</time>
      </trkpt>
      <trkpt lat="43.96461" lon="5.33682">
        <ele>454.67</ele>
        <time>2021-05-27T13:55:10Z</time>
      </trkpt>
      <trkpt lat="43.96447" lon="5.33666">
        <ele>452.56</ele>
        <time>2021-05-27T13:55:30Z</time>
      </trkpt>
      <trkpt lat="43.96431" lon="5.33661">
        <ele>451.69</ele>
        <time>2021-05-27T13:55:47Z</time>
      </trkpt>
      <trkpt lat="43.96419" lon="5.33662">
        <ele>451.33</ele>
        <time>2021-05-27T13:55:59Z</time>
      </trkpt>
      <trkpt lat="43.96415" lon="5.33658">
        <ele>451.57</ele>
        <time>2021-05-27T13:56:16Z</time>
      </trkpt>
      <trkpt lat="43.96401" lon="5.3366">
        <ele>451.58</ele>
        <time>2021-05-27T13:57:09Z</time>
      </trkpt>
      <trkpt lat="43.96384" lon="5.33666">
        <ele>451.46</ele>
        <time>2021-05-27T13:57:28Z</time>
      </trkpt>
      <trkpt lat="43.96376" lon="5.33666">
        <ele>450.8</ele>
        <time>2021-05-27T13:57:48Z</time>
      </trkpt>
      <trkpt lat="43.96376" lon="5.33666">
        <ele>450.2</ele>
        <time>2021-05-27T13:57:50Z</time>
      </trkpt>
    </trkseg>
  </trk>
</gpx>